THA1123 YSSY-VTBS
Flight info
| Callsign | THA1123 |
|---|---|
| Flight time | N/A |
| Altitude | 38000 |
| Route | KADOM A576 CIN/N0486F400 A576 ATMAP M635 BLI G464 PNK N875 ENREP M904 TONIK M644 ALUMO Y12 ALEMI TUMGA1C |
| Aircraft | A359/H-SDE2E3GHIJ3J4J5LM1ORWXY/LB1D1 |
Departure
| Time | 2026-05-04 15:03 |
|---|---|
| Airport | Sydney Kingsford Smith International Airport (YSSY) |
Arrival
| Time | N/A |
|---|---|
| Airport | Suvarnabhumi Airport (VTBS) |
| Time | Latitude | Longitude | Altitude | Speed | Heading |
|---|---|---|---|---|---|
| 2026-05-04 14:50 | -33.94035 | 151.16542 | 27 ft | 0 kts | 345° |
| 2026-05-04 14:51 | -33.94043 | 151.16545 | 26 ft | 2 kts | 345° |
| 2026-05-04 14:51 | -33.94059 | 151.16550 | 26 ft | 2 kts | 345° |
| 2026-05-04 14:51 | -33.94075 | 151.16555 | 27 ft | 2 kts | 348° |
| 2026-05-04 14:51 | -33.94091 | 151.16557 | 26 ft | 2 kts | 0° |
| 2026-05-04 14:52 | -33.94107 | 151.16556 | 26 ft | 2 kts | 10° |
| 2026-05-04 14:52 | -33.94123 | 151.16551 | 26 ft | 2 kts | 29° |
| 2026-05-04 14:52 | -33.94133 | 151.16536 | 25 ft | 2 kts | 73° |
| 2026-05-04 14:52 | -33.94138 | 151.16517 | 27 ft | 2 kts | 75° |
| 2026-05-04 14:53 | -33.94142 | 151.16498 | 27 ft | 2 kts | 75° |
| 2026-05-04 14:53 | -33.94146 | 151.16483 | 27 ft | 1 kts | 73° |
| 2026-05-04 14:53 | -33.94146 | 151.16481 | 26 ft | 0 kts | 73° |
| 2026-05-04 14:53 | -33.94145 | 151.16484 | 27 ft | 3 kts | 73° |
| 2026-05-04 14:54 | -33.94136 | 151.16523 | 27 ft | 6 kts | 74° |
| 2026-05-04 14:54 | -33.94124 | 151.16578 | 27 ft | 8 kts | 76° |
| 2026-05-04 14:54 | -33.94109 | 151.16645 | 27 ft | 9 kts | 73° |
| 2026-05-04 14:54 | -33.94090 | 151.16722 | 27 ft | 11 kts | 73° |
| 2026-05-04 14:55 | -33.94068 | 151.16813 | 27 ft | 12 kts | 74° |
| 2026-05-04 14:55 | -33.94058 | 151.16857 | 27 ft | 13 kts | 74° |
| 2026-05-04 14:55 | -33.94032 | 151.16968 | 27 ft | 15 kts | 74° |
| 2026-05-04 14:55 | -33.94002 | 151.17090 | 26 ft | 16 kts | 73° |
| 2026-05-04 14:56 | -33.93992 | 151.17207 | 28 ft | 12 kts | 122° |
| 2026-05-04 14:56 | -33.94062 | 151.17248 | 28 ft | 11 kts | 168° |
| 2026-05-04 14:56 | -33.94140 | 151.17267 | 28 ft | 12 kts | 168° |
| 2026-05-04 14:56 | -33.94224 | 151.17289 | 29 ft | 13 kts | 168° |
| 2026-05-04 14:57 | -33.94309 | 151.17312 | 30 ft | 12 kts | 167° |
| 2026-05-04 14:57 | -33.94389 | 151.17333 | 32 ft | 12 kts | 167° |
| 2026-05-04 14:57 | -33.94471 | 151.17355 | 32 ft | 13 kts | 167° |
| 2026-05-04 14:57 | -33.94532 | 151.17371 | 32 ft | 14 kts | 167° |
| 2026-05-04 14:58 | -33.94661 | 151.17403 | 32 ft | 15 kts | 168° |
| 2026-05-04 14:58 | -33.94732 | 151.17421 | 31 ft | 16 kts | 168° |
| 2026-05-04 14:58 | -33.94856 | 151.17453 | 27 ft | 20 kts | 168° |
| 2026-05-04 14:58 | -33.94997 | 151.17489 | 26 ft | 21 kts | 168° |
| 2026-05-04 14:59 | -33.95141 | 151.17527 | 28 ft | 22 kts | 167° |
| 2026-05-04 14:59 | -33.95295 | 151.17568 | 27 ft | 23 kts | 168° |
| 2026-05-04 14:59 | -33.95599 | 151.17646 | 29 ft | 22 kts | 167° |
| 2026-05-04 15:00 | -33.95742 | 151.17684 | 31 ft | 21 kts | 167° |
| 2026-05-04 15:00 | -33.95889 | 151.17723 | 28 ft | 23 kts | 167° |
| 2026-05-04 15:00 | -33.96044 | 151.17761 | 31 ft | 23 kts | 168° |
| 2026-05-04 15:01 | -33.96375 | 151.17847 | 29 ft | 19 kts | 168° |
| 2026-05-04 15:01 | -33.96438 | 151.17912 | 30 ft | 12 kts | 105° |
| 2026-05-04 15:01 | -33.96423 | 151.18013 | 30 ft | 13 kts | 64° |
| 2026-05-04 15:01 | -33.96350 | 151.18044 | 30 ft | 12 kts | 355° |
| 2026-05-04 15:02 | -33.96322 | 151.18037 | 30 ft | 0 kts | 348° |
| 2026-05-04 15:02 | -33.96205 | 151.18007 | 27 ft | 46 kts | 347° |
| 2026-05-04 15:02 | -33.95685 | 151.17872 | 28 ft | 105 kts | 347° |
| 2026-05-04 15:02 | -33.94798 | 151.17642 | 29 ft | 155 kts | 348° |
| 2026-05-04 15:03 | -33.93648 | 151.17354 | 375 ft | 169 kts | 345° |
| 2026-05-04 15:03 | -33.92483 | 151.17149 | 948 ft | 173 kts | 353° |
| 2026-05-04 15:03 | -33.91254 | 151.17003 | 1325 ft | 186 kts | 341° |
| 2026-05-04 15:03 | -33.90335 | 151.16014 | 1796 ft | 181 kts | 291° |
| 2026-05-04 15:04 | -33.90039 | 151.14482 | 2095 ft | 199 kts | 280° |
| 2026-05-04 15:04 | -33.89670 | 151.12781 | 2346 ft | 221 kts | 289° |
| 2026-05-04 15:04 | -33.89032 | 151.11006 | 2667 ft | 240 kts | 296° |
| 2026-05-04 15:04 | -33.88216 | 151.09223 | 3229 ft | 246 kts | 299° |
| 2026-05-04 15:05 | -33.87316 | 151.07452 | 3896 ft | 249 kts | 301° |
| 2026-05-04 15:05 | -33.86396 | 151.05725 | 4613 ft | 248 kts | 302° |
| 2026-05-04 15:05 | -33.85439 | 151.03971 | 5443 ft | 245 kts | 303° |
| 2026-05-04 15:05 | -33.84591 | 151.02234 | 6200 ft | 244 kts | 294° |
| 2026-05-04 15:06 | -33.84081 | 151.00280 | 6910 ft | 246 kts | 285° |
| 2026-05-04 15:06 | -33.83711 | 150.98253 | 7568 ft | 250 kts | 284° |
| 2026-05-04 15:06 | -33.83347 | 150.96191 | 8242 ft | 254 kts | 285° |
| 2026-05-04 15:07 | -33.82594 | 150.91989 | 9724 ft | 258 kts | 287° |
| 2026-05-04 15:07 | -33.82204 | 150.89858 | 10256 ft | 267 kts | 287° |
| 2026-05-04 15:07 | -33.81789 | 150.87609 | 10566 ft | 284 kts | 287° |
| 2026-05-04 15:07 | -33.81356 | 150.85259 | 10850 ft | 300 kts | 287° |
| 2026-05-04 15:08 | -33.80891 | 150.82736 | 11151 ft | 316 kts | 287° |
| 2026-05-04 15:08 | -33.80405 | 150.80090 | 11433 ft | 331 kts | 286° |
| 2026-05-04 15:08 | -33.79899 | 150.77333 | 11739 ft | 344 kts | 286° |
| 2026-05-04 15:08 | -33.79378 | 150.74501 | 12253 ft | 349 kts | 286° |
| 2026-05-04 15:09 | -33.78854 | 150.71644 | 12897 ft | 351 kts | 286° |
| 2026-05-04 15:09 | -33.78324 | 150.68772 | 13487 ft | 354 kts | 286° |
| 2026-05-04 15:09 | -33.77788 | 150.65870 | 14019 ft | 357 kts | 286° |
| 2026-05-04 15:10 | -33.76700 | 150.60002 | 15073 ft | 362 kts | 286° |
| 2026-05-04 15:10 | -33.76151 | 150.57042 | 15640 ft | 363 kts | 287° |
| 2026-05-04 15:10 | -33.75041 | 150.51075 | 16733 ft | 368 kts | 287° |
| 2026-05-04 15:11 | -33.74477 | 150.48058 | 17254 ft | 372 kts | 287° |
| 2026-05-04 15:11 | -33.73907 | 150.45017 | 17818 ft | 374 kts | 287° |
| 2026-05-04 15:11 | -33.73341 | 150.41996 | 18354 ft | 377 kts | 287° |
| 2026-05-04 15:11 | -33.72754 | 150.38871 | 18824 ft | 380 kts | 287° |
| 2026-05-04 15:12 | -33.72179 | 150.35811 | 19316 ft | 381 kts | 287° |
| 2026-05-04 15:12 | -33.71591 | 150.32695 | 19827 ft | 383 kts | 287° |
| 2026-05-04 15:12 | -33.70953 | 150.29586 | 20335 ft | 383 kts | 289° |
| 2026-05-04 15:12 | -33.70202 | 150.26507 | 20855 ft | 384 kts | 290° |
| 2026-05-04 15:13 | -33.69388 | 150.23442 | 21367 ft | 386 kts | 291° |
| 2026-05-04 15:13 | -33.68540 | 150.20376 | 21886 ft | 388 kts | 291° |
| 2026-05-04 15:13 | -33.67680 | 150.17296 | 22418 ft | 390 kts | 291° |
| 2026-05-04 15:13 | -33.66820 | 150.14210 | 23063 ft | 389 kts | 291° |
| 2026-05-04 15:14 | -33.65966 | 150.11128 | 23674 ft | 390 kts | 291° |
| 2026-05-04 15:14 | -33.65112 | 150.08024 | 24062 ft | 394 kts | 291° |
| 2026-05-04 15:14 | -33.64251 | 150.04890 | 24441 ft | 396 kts | 290° |
| 2026-05-04 15:14 | -33.63385 | 150.01734 | 24826 ft | 399 kts | 290° |
| 2026-05-04 15:15 | -33.62520 | 149.98566 | 25223 ft | 401 kts | 290° |
| 2026-05-04 15:15 | -33.61649 | 149.95378 | 25682 ft | 403 kts | 290° |
| 2026-05-04 15:15 | -33.60772 | 149.92175 | 26096 ft | 405 kts | 290° |
| 2026-05-04 15:16 | -33.58999 | 149.85718 | 26985 ft | 408 kts | 290° |
| 2026-05-04 15:16 | -33.58108 | 149.82482 | 27438 ft | 410 kts | 290° |
| 2026-05-04 15:16 | -33.56308 | 149.75961 | 28207 ft | 415 kts | 290° |
| 2026-05-04 15:17 | -33.55399 | 149.72671 | 28583 ft | 417 kts | 290° |
| 2026-05-04 15:17 | -33.53563 | 149.66039 | 29319 ft | 421 kts | 290° |
| 2026-05-04 15:17 | -33.52635 | 149.62695 | 29650 ft | 423 kts | 290° |
| 2026-05-04 15:18 | -33.51704 | 149.59337 | 30019 ft | 425 kts | 290° |
| 2026-05-04 15:18 | -33.50771 | 149.55980 | 30421 ft | 425 kts | 290° |
| 2026-05-04 15:18 | -33.49838 | 149.52627 | 30809 ft | 423 kts | 290° |
| 2026-05-04 15:19 | -33.47981 | 149.45961 | 31558 ft | 421 kts | 290° |
| 2026-05-04 15:19 | -33.47052 | 149.42637 | 31903 ft | 420 kts | 290° |
| 2026-05-04 15:19 | -33.45211 | 149.36057 | 32587 ft | 418 kts | 290° |
| 2026-05-04 15:20 | -33.44286 | 149.32758 | 32943 ft | 417 kts | 290° |
| 2026-05-04 15:20 | -33.43364 | 149.29469 | 33275 ft | 416 kts | 290° |
| 2026-05-04 15:20 | -33.42443 | 149.26190 | 33611 ft | 415 kts | 290° |
| 2026-05-04 15:20 | -33.41523 | 149.22920 | 33927 ft | 414 kts | 290° |
| 2026-05-04 15:21 | -33.40605 | 149.19656 | 34229 ft | 414 kts | 290° |
| 2026-05-04 15:21 | -33.39684 | 149.16390 | 34482 ft | 413 kts | 290° |
| 2026-05-04 15:21 | -33.37845 | 149.09879 | 34904 ft | 413 kts | 290° |
| 2026-05-04 15:22 | -33.36925 | 149.06624 | 35097 ft | 413 kts | 290° |
| 2026-05-04 15:22 | -33.36002 | 149.03366 | 35330 ft | 413 kts | 290° |
| 2026-05-04 15:22 | -33.34161 | 148.96876 | 35766 ft | 412 kts | 290° |
| 2026-05-04 15:23 | -33.33239 | 148.93629 | 35959 ft | 412 kts | 290° |
| 2026-05-04 15:23 | -33.32316 | 148.90384 | 36144 ft | 413 kts | 290° |
| 2026-05-04 15:23 | -33.31390 | 148.87135 | 36329 ft | 413 kts | 290° |
| 2026-05-04 15:23 | -33.30476 | 148.83927 | 36492 ft | 413 kts | 290° |
| 2026-05-04 15:24 | -33.28619 | 148.77427 | 36821 ft | 413 kts | 290° |
| 2026-05-04 15:24 | -33.26758 | 148.70923 | 37162 ft | 413 kts | 290° |
| 2026-05-04 15:25 | -33.25827 | 148.67674 | 37301 ft | 414 kts | 290° |
| 2026-05-04 15:25 | -33.24894 | 148.64423 | 37446 ft | 414 kts | 290° |
| 2026-05-04 15:25 | -33.23960 | 148.61174 | 37585 ft | 414 kts | 290° |
| 2026-05-04 15:26 | -33.22090 | 148.54672 | 37838 ft | 414 kts | 290° |
| 2026-05-04 15:26 | -33.21152 | 148.51420 | 37949 ft | 414 kts | 290° |
| 2026-05-04 15:26 | -33.19272 | 148.44909 | 38145 ft | 416 kts | 290° |
| 2026-05-04 15:27 | -33.16422 | 148.35069 | 38161 ft | 419 kts | 290° |
| 2026-05-04 15:28 | -33.13486 | 148.25260 | 38159 ft | 418 kts | 294° |
| 2026-05-04 15:29 | -33.09127 | 148.16246 | 38151 ft | 418 kts | 301° |
| 2026-05-04 15:30 | -32.98073 | 147.95992 | 38150 ft | 416 kts | 301° |
| 2026-05-04 15:31 | -32.93351 | 147.87328 | 38155 ft | 416 kts | 301° |
| 2026-05-04 15:32 | -32.85467 | 147.72911 | 38152 ft | 416 kts | 301° |
| 2026-05-04 15:34 | -32.77562 | 147.58513 | 38155 ft | 417 kts | 302° |
| 2026-05-04 15:34 | -32.72795 | 147.49858 | 38157 ft | 417 kts | 302° |
| 2026-05-04 15:35 | -32.68044 | 147.41252 | 38156 ft | 417 kts | 302° |
| 2026-05-04 15:36 | -32.63268 | 147.32619 | 38154 ft | 417 kts | 302° |
| 2026-05-04 15:36 | -32.60077 | 147.26862 | 38146 ft | 418 kts | 302° |
| 2026-05-04 15:37 | -32.56884 | 147.21111 | 38146 ft | 417 kts | 302° |
| 2026-05-04 15:37 | -32.53697 | 147.15380 | 38157 ft | 416 kts | 302° |
| 2026-05-04 15:38 | -32.50515 | 147.09665 | 38161 ft | 415 kts | 302° |
| 2026-05-04 15:38 | -32.47327 | 147.03949 | 38157 ft | 416 kts | 302° |
| 2026-05-04 15:39 | -32.44135 | 146.98235 | 38154 ft | 416 kts | 302° |
| 2026-05-04 15:40 | -32.39339 | 146.89666 | 38157 ft | 416 kts | 302° |
| 2026-05-04 15:40 | -32.36138 | 146.83956 | 38166 ft | 416 kts | 302° |
| 2026-05-04 15:41 | -32.32956 | 146.78289 | 38159 ft | 417 kts | 302° |
| 2026-05-04 15:41 | -32.29748 | 146.72586 | 38163 ft | 417 kts | 302° |
| 2026-05-04 15:42 | -32.26534 | 146.66880 | 38159 ft | 417 kts | 302° |
| 2026-05-04 15:42 | -32.23318 | 146.61179 | 38161 ft | 417 kts | 302° |
| 2026-05-04 15:43 | -32.20100 | 146.55484 | 38158 ft | 417 kts | 302° |
| 2026-05-04 15:43 | -32.16880 | 146.49792 | 38159 ft | 417 kts | 302° |
| 2026-05-04 15:44 | -32.13658 | 146.44106 | 38163 ft | 417 kts | 302° |
| 2026-05-04 15:44 | -32.10431 | 146.38419 | 38159 ft | 417 kts | 302° |
| 2026-05-04 15:45 | -32.07751 | 146.33702 | 38163 ft | 416 kts | 302° |
| 2026-05-04 15:45 | -32.04530 | 146.28044 | 38159 ft | 415 kts | 302° |
| 2026-05-04 15:46 | -32.01310 | 146.22392 | 38157 ft | 415 kts | 302° |
| 2026-05-04 15:46 | -31.98086 | 146.16743 | 38158 ft | 415 kts | 302° |
| 2026-05-04 15:47 | -31.94860 | 146.11097 | 38157 ft | 415 kts | 302° |
| 2026-05-04 15:47 | -31.91629 | 146.05453 | 38158 ft | 416 kts | 302° |
| 2026-05-04 15:48 | -31.88397 | 145.99815 | 38156 ft | 415 kts | 302° |
| 2026-05-04 15:48 | -31.83565 | 145.91402 | 38157 ft | 415 kts | 302° |
| 2026-05-04 15:49 | -31.80326 | 145.85773 | 38153 ft | 416 kts | 302° |
| 2026-05-04 15:49 | -31.77082 | 145.80143 | 38153 ft | 416 kts | 302° |
| 2026-05-04 15:50 | -31.73838 | 145.74520 | 38153 ft | 415 kts | 302° |
| 2026-05-04 15:50 | -31.70593 | 145.68906 | 38153 ft | 415 kts | 302° |
| 2026-05-04 15:51 | -31.67345 | 145.63293 | 38154 ft | 415 kts | 302° |
| 2026-05-04 15:51 | -31.64097 | 145.57689 | 38154 ft | 415 kts | 302° |
| 2026-05-04 15:52 | -31.60844 | 145.52084 | 38165 ft | 415 kts | 302° |
| 2026-05-04 15:52 | -31.57591 | 145.46488 | 38147 ft | 415 kts | 302° |
| 2026-05-04 15:53 | -31.54339 | 145.40902 | 38157 ft | 415 kts | 302° |
| 2026-05-04 15:53 | -31.51085 | 145.35320 | 38147 ft | 414 kts | 302° |
| 2026-05-04 15:54 | -31.47827 | 145.29739 | 38147 ft | 415 kts | 302° |
| 2026-05-04 15:54 | -31.44570 | 145.24167 | 38167 ft | 415 kts | 302° |
| 2026-05-04 15:55 | -31.41304 | 145.18589 | 38148 ft | 415 kts | 302° |
| 2026-05-04 15:55 | -31.38036 | 145.13014 | 38150 ft | 415 kts | 303° |
| 2026-05-04 15:56 | -31.34762 | 145.07439 | 38150 ft | 415 kts | 303° |
| 2026-05-04 15:56 | -31.31508 | 145.01905 | 38153 ft | 416 kts | 303° |
| 2026-05-04 15:57 | -31.28232 | 144.96340 | 38149 ft | 416 kts | 303° |
| 2026-05-04 15:57 | -31.24946 | 144.90768 | 38160 ft | 416 kts | 303° |
| 2026-05-04 15:58 | -31.21659 | 144.85203 | 38162 ft | 416 kts | 303° |
| 2026-05-04 15:58 | -31.18371 | 144.79641 | 38150 ft | 416 kts | 303° |
| 2026-05-04 15:59 | -31.15078 | 144.74080 | 38159 ft | 416 kts | 303° |
| 2026-05-04 15:59 | -31.11781 | 144.68521 | 38154 ft | 416 kts | 303° |
| 2026-05-04 16:00 | -31.08484 | 144.62970 | 38161 ft | 415 kts | 303° |
| 2026-05-04 16:00 | -31.05190 | 144.57432 | 38161 ft | 415 kts | 303° |
| 2026-05-04 16:01 | -31.01896 | 144.51901 | 38162 ft | 415 kts | 303° |
| 2026-05-04 16:01 | -30.98599 | 144.46372 | 38158 ft | 416 kts | 303° |
| 2026-05-04 16:02 | -30.95316 | 144.40874 | 38159 ft | 416 kts | 303° |
| 2026-05-04 16:03 | -30.90352 | 144.32578 | 38162 ft | 416 kts | 303° |
| 2026-05-04 16:03 | -30.87040 | 144.27051 | 38162 ft | 416 kts | 303° |
| 2026-05-04 16:04 | -30.83725 | 144.21527 | 38161 ft | 416 kts | 303° |
| 2026-05-04 16:04 | -30.78742 | 144.13240 | 38167 ft | 417 kts | 303° |
| 2026-05-04 16:05 | -30.75413 | 144.07712 | 38164 ft | 417 kts | 303° |
| 2026-05-04 16:06 | -30.70420 | 143.99436 | 38167 ft | 417 kts | 303° |
| 2026-05-04 16:07 | -30.63752 | 143.88410 | 38154 ft | 417 kts | 303° |
| 2026-05-04 16:08 | -30.57115 | 143.77468 | 38168 ft | 415 kts | 303° |
| 2026-05-04 16:09 | -30.48784 | 143.63772 | 38168 ft | 416 kts | 303° |
| 2026-05-04 16:10 | -30.42101 | 143.52819 | 38170 ft | 416 kts | 303° |
| 2026-05-04 16:11 | -30.35404 | 143.41875 | 38170 ft | 416 kts | 304° |
| 2026-05-04 16:12 | -30.25340 | 143.25484 | 38176 ft | 416 kts | 304° |
| 2026-05-04 16:13 | -30.18638 | 143.14605 | 38177 ft | 417 kts | 304° |
| 2026-05-04 16:14 | -30.11897 | 143.03701 | 38179 ft | 417 kts | 304° |
| 2026-05-04 16:16 | -30.03449 | 142.90078 | 38181 ft | 418 kts | 304° |
| 2026-05-04 16:17 | -29.94963 | 142.76440 | 38176 ft | 418 kts | 304° |
| 2026-05-04 16:18 | -29.88161 | 142.65543 | 38180 ft | 419 kts | 304° |
| 2026-05-04 16:19 | -29.79636 | 142.51933 | 38177 ft | 419 kts | 304° |
| 2026-05-04 16:20 | -29.71078 | 142.38316 | 38178 ft | 420 kts | 304° |
| 2026-05-04 16:22 | -29.62514 | 142.24737 | 38187 ft | 419 kts | 304° |
| 2026-05-04 16:23 | -29.52251 | 142.08520 | 38185 ft | 419 kts | 304° |
| 2026-05-04 16:25 | -29.41925 | 141.92268 | 38174 ft | 421 kts | 304° |
| 2026-05-04 16:26 | -29.29829 | 141.73313 | 38199 ft | 421 kts | 305° |
| 2026-05-04 16:28 | -29.21180 | 141.59813 | 38197 ft | 421 kts | 305° |
| 2026-05-04 16:29 | -29.09075 | 141.40990 | 38189 ft | 418 kts | 305° |
| 2026-05-04 16:31 | -29.00427 | 141.27594 | 38190 ft | 420 kts | 305° |
| 2026-05-04 16:32 | -28.90019 | 141.11530 | 38189 ft | 420 kts | 305° |
| 2026-05-04 16:33 | -28.83047 | 141.00803 | 38189 ft | 421 kts | 305° |
| 2026-05-04 16:34 | -28.77804 | 140.92756 | 38190 ft | 421 kts | 305° |
| 2026-05-04 16:35 | -28.67900 | 140.77595 | 38191 ft | 420 kts | 305° |
| 2026-05-04 16:36 | -28.62669 | 140.69609 | 38188 ft | 419 kts | 305° |
| 2026-05-04 16:37 | -28.57433 | 140.61630 | 38186 ft | 420 kts | 306° |
| 2026-05-04 16:38 | -28.50415 | 140.50960 | 38193 ft | 421 kts | 306° |
| 2026-05-04 16:39 | -28.41628 | 140.37637 | 38194 ft | 421 kts | 306° |
| 2026-05-04 16:40 | -28.34609 | 140.27026 | 38190 ft | 421 kts | 306° |
| 2026-05-04 16:41 | -28.25790 | 140.13731 | 38195 ft | 423 kts | 306° |
| 2026-05-04 16:43 | -28.16967 | 140.00471 | 38194 ft | 419 kts | 306° |
| 2026-05-04 16:43 | -28.11684 | 139.92550 | 38195 ft | 420 kts | 306° |
| 2026-05-04 16:45 | -28.01115 | 139.76749 | 38194 ft | 421 kts | 306° |
| 2026-05-04 16:46 | -27.92249 | 139.63537 | 38195 ft | 423 kts | 306° |
| 2026-05-04 16:47 | -27.85130 | 139.52959 | 38194 ft | 423 kts | 306° |
| 2026-05-04 16:48 | -27.77986 | 139.42370 | 38198 ft | 424 kts | 306° |
| 2026-05-04 16:49 | -27.70847 | 139.31815 | 38196 ft | 421 kts | 306° |
| 2026-05-04 16:50 | -27.63759 | 139.21358 | 38201 ft | 420 kts | 306° |
| 2026-05-04 16:51 | -27.58427 | 139.13509 | 38200 ft | 420 kts | 306° |
| 2026-05-04 16:52 | -27.51305 | 139.03047 | 38202 ft | 421 kts | 306° |
| 2026-05-04 16:53 | -27.45952 | 138.95200 | 38200 ft | 421 kts | 306° |
| 2026-05-04 16:54 | -27.38801 | 138.84740 | 38201 ft | 422 kts | 306° |
| 2026-05-04 16:55 | -27.28010 | 138.69002 | 38184 ft | 424 kts | 306° |
| 2026-05-04 16:56 | -27.19032 | 138.55952 | 38197 ft | 422 kts | 306° |
| 2026-05-04 16:57 | -27.13637 | 138.48128 | 38196 ft | 422 kts | 306° |
| 2026-05-04 16:58 | -27.06428 | 138.37694 | 38196 ft | 425 kts | 306° |
| 2026-05-04 17:00 | -26.95568 | 138.22024 | 38200 ft | 425 kts | 306° |
| 2026-05-04 17:01 | -26.86459 | 138.08923 | 38200 ft | 427 kts | 307° |
| 2026-05-04 17:02 | -26.79156 | 137.98450 | 38197 ft | 426 kts | 307° |
| 2026-05-04 17:03 | -26.73686 | 137.90621 | 38197 ft | 425 kts | 307° |
| 2026-05-04 17:03 | -26.68215 | 137.82804 | 38197 ft | 426 kts | 307° |
| 2026-05-04 17:04 | -26.60898 | 137.72370 | 38198 ft | 427 kts | 307° |
| 2026-05-04 17:05 | -26.53553 | 137.61923 | 38203 ft | 428 kts | 307° |
| 2026-05-04 17:06 | -26.48062 | 137.54127 | 38203 ft | 429 kts | 307° |
| 2026-05-04 17:07 | -26.43121 | 137.47125 | 38203 ft | 429 kts | 307° |
| 2026-05-04 17:07 | -26.38826 | 137.41046 | 38202 ft | 429 kts | 307° |
| 2026-05-04 17:08 | -26.33276 | 137.33202 | 38197 ft | 430 kts | 307° |
| 2026-05-04 17:09 | -26.29572 | 137.27977 | 38199 ft | 429 kts | 307° |
| 2026-05-04 17:09 | -26.25876 | 137.22768 | 38201 ft | 429 kts | 307° |
| 2026-05-04 17:10 | -26.16622 | 137.09750 | 38200 ft | 429 kts | 307° |
| 2026-05-04 17:11 | -26.12917 | 137.04550 | 38200 ft | 429 kts | 307° |
| 2026-05-04 17:12 | -26.07376 | 136.96782 | 38199 ft | 429 kts | 307° |
| 2026-05-04 17:13 | -25.98075 | 136.83773 | 38204 ft | 430 kts | 307° |
| 2026-05-04 17:14 | -25.90610 | 136.73358 | 38201 ft | 431 kts | 306° |
| 2026-05-04 17:15 | -25.84987 | 136.65527 | 38194 ft | 432 kts | 307° |
| 2026-05-04 17:16 | -25.77542 | 136.55190 | 38214 ft | 430 kts | 306° |
| 2026-05-04 17:17 | -25.70054 | 136.44812 | 38197 ft | 431 kts | 306° |
| 2026-05-04 17:18 | -25.62544 | 136.34427 | 38211 ft | 432 kts | 306° |
| 2026-05-04 17:19 | -25.55012 | 136.24036 | 38211 ft | 433 kts | 306° |
| 2026-05-04 17:20 | -25.47465 | 136.13646 | 38208 ft | 434 kts | 306° |
| 2026-05-04 17:20 | -25.41803 | 136.05868 | 38204 ft | 435 kts | 306° |
| 2026-05-04 17:21 | -25.34208 | 135.95453 | 38210 ft | 435 kts | 306° |
| 2026-05-04 17:22 | -25.30402 | 135.90242 | 38206 ft | 436 kts | 306° |
| 2026-05-04 17:23 | -25.22769 | 135.79810 | 38208 ft | 436 kts | 306° |
| 2026-05-04 17:24 | -25.17683 | 135.72872 | 38211 ft | 437 kts | 306° |
| 2026-05-04 17:25 | -25.10017 | 135.62432 | 38219 ft | 438 kts | 306° |
| 2026-05-04 17:26 | -25.02331 | 135.51989 | 38225 ft | 439 kts | 306° |
| 2026-05-04 17:27 | -24.92719 | 135.38962 | 38214 ft | 438 kts | 306° |
| 2026-05-04 17:28 | -24.85019 | 135.28551 | 38222 ft | 438 kts | 306° |
| 2026-05-04 17:29 | -24.73443 | 135.12944 | 38223 ft | 439 kts | 306° |
| 2026-05-04 17:31 | -24.63784 | 134.99958 | 38224 ft | 439 kts | 306° |
| 2026-05-04 17:32 | -24.54078 | 134.86946 | 38221 ft | 440 kts | 306° |
| 2026-05-04 17:33 | -24.46332 | 134.76586 | 38224 ft | 440 kts | 306° |
| 2026-05-04 17:34 | -24.38561 | 134.66215 | 38234 ft | 439 kts | 306° |
| 2026-05-04 17:35 | -24.28837 | 134.53268 | 38213 ft | 440 kts | 305° |
| 2026-05-04 17:36 | -24.24937 | 134.48087 | 38220 ft | 440 kts | 305° |
| 2026-05-04 17:36 | -24.21042 | 134.42916 | 38222 ft | 440 kts | 306° |
| 2026-05-04 17:37 | -24.17140 | 134.37742 | 38224 ft | 441 kts | 305° |
| 2026-05-04 17:37 | -24.13228 | 134.32559 | 38202 ft | 441 kts | 305° |
| 2026-05-04 17:38 | -24.09315 | 134.27381 | 38222 ft | 441 kts | 305° |
| 2026-05-04 17:38 | -24.05405 | 134.22213 | 38235 ft | 441 kts | 305° |
| 2026-05-04 17:39 | -23.99557 | 134.14491 | 38218 ft | 442 kts | 305° |
| 2026-05-04 17:39 | -23.95628 | 134.09313 | 38218 ft | 442 kts | 305° |
| 2026-05-04 17:40 | -23.91699 | 134.04137 | 38220 ft | 442 kts | 305° |
| 2026-05-04 17:40 | -23.87769 | 133.98968 | 38212 ft | 442 kts | 305° |
| 2026-05-04 17:41 | -23.83835 | 133.93796 | 38211 ft | 443 kts | 305° |
| 2026-05-04 17:41 | -23.79929 | 133.88600 | 38209 ft | 441 kts | 302° |
| 2026-05-04 17:42 | -23.76574 | 133.83042 | 38227 ft | 438 kts | 298° |
| 2026-05-04 17:42 | -23.73370 | 133.77388 | 38212 ft | 438 kts | 297° |
| 2026-05-04 17:43 | -23.70190 | 133.71717 | 38210 ft | 438 kts | 297° |
| 2026-05-04 17:43 | -23.67021 | 133.66088 | 38206 ft | 438 kts | 297° |
| 2026-05-04 17:44 | -23.63824 | 133.60435 | 38208 ft | 438 kts | 297° |
| 2026-05-04 17:44 | -23.60620 | 133.54779 | 38206 ft | 438 kts | 297° |
| 2026-05-04 17:45 | -23.57413 | 133.49125 | 38197 ft | 438 kts | 297° |
| 2026-05-04 17:45 | -23.54207 | 133.43477 | 38200 ft | 438 kts | 297° |
| 2026-05-04 17:46 | -23.50995 | 133.37826 | 38197 ft | 438 kts | 297° |
| 2026-05-04 17:46 | -23.47785 | 133.32184 | 38198 ft | 438 kts | 297° |
| 2026-05-04 17:47 | -23.44573 | 133.26545 | 38195 ft | 438 kts | 297° |
| 2026-05-04 17:47 | -23.41360 | 133.20911 | 38189 ft | 438 kts | 297° |
| 2026-05-04 17:48 | -23.38142 | 133.15273 | 38189 ft | 439 kts | 297° |
| 2026-05-04 17:48 | -23.34917 | 133.09629 | 38186 ft | 439 kts | 297° |
| 2026-05-04 17:49 | -23.31712 | 133.04029 | 38186 ft | 439 kts | 297° |
| 2026-05-04 17:49 | -23.28482 | 132.98389 | 38184 ft | 439 kts | 297° |
| 2026-05-04 17:50 | -23.25243 | 132.92740 | 38184 ft | 440 kts | 297° |
| 2026-05-04 17:50 | -23.22003 | 132.87098 | 38179 ft | 439 kts | 297° |
| 2026-05-04 17:51 | -23.18769 | 132.81471 | 38175 ft | 439 kts | 297° |
| 2026-05-04 17:51 | -23.15532 | 132.75846 | 38177 ft | 439 kts | 297° |
| 2026-05-04 17:52 | -23.12290 | 132.70216 | 38172 ft | 439 kts | 297° |
| 2026-05-04 17:52 | -23.09072 | 132.64634 | 38155 ft | 438 kts | 297° |
| 2026-05-04 17:53 | -23.05834 | 132.59025 | 38174 ft | 438 kts | 297° |
| 2026-05-04 17:53 | -23.02594 | 132.53418 | 38174 ft | 438 kts | 297° |
| 2026-05-04 17:54 | -22.99347 | 132.47803 | 38172 ft | 438 kts | 297° |
| 2026-05-04 17:54 | -22.96100 | 132.42197 | 38165 ft | 438 kts | 297° |
| 2026-05-04 17:55 | -22.92853 | 132.36596 | 38172 ft | 439 kts | 297° |
| 2026-05-04 17:55 | -22.89608 | 132.31007 | 38167 ft | 438 kts | 297° |
| 2026-05-04 17:56 | -22.86361 | 132.25418 | 38170 ft | 438 kts | 297° |
| 2026-05-04 17:56 | -22.83115 | 132.19837 | 38149 ft | 438 kts | 297° |
| 2026-05-04 17:57 | -22.79861 | 132.14247 | 38164 ft | 439 kts | 296° |
| 2026-05-04 17:57 | -22.76604 | 132.08659 | 38160 ft | 438 kts | 297° |
| 2026-05-04 17:58 | -22.73349 | 132.03082 | 38157 ft | 438 kts | 297° |
| 2026-05-04 17:58 | -22.70090 | 131.97503 | 38155 ft | 438 kts | 296° |
| 2026-05-04 17:59 | -22.66827 | 131.91921 | 38154 ft | 439 kts | 296° |
| 2026-05-04 18:00 | -22.61927 | 131.83552 | 38148 ft | 439 kts | 296° |
| 2026-05-04 18:00 | -22.58660 | 131.77983 | 38151 ft | 438 kts | 296° |
| 2026-05-04 18:01 | -22.55391 | 131.72414 | 38144 ft | 438 kts | 296° |
| 2026-05-04 18:01 | -22.52120 | 131.66845 | 38143 ft | 439 kts | 296° |
| 2026-05-04 18:02 | -22.47223 | 131.58521 | 38125 ft | 439 kts | 296° |
| 2026-05-04 18:02 | -22.43944 | 131.52955 | 38132 ft | 439 kts | 296° |
| 2026-05-04 18:03 | -22.40663 | 131.47390 | 38130 ft | 439 kts | 296° |
| 2026-05-04 18:03 | -22.37380 | 131.41830 | 38127 ft | 439 kts | 296° |
| 2026-05-04 18:04 | -22.34092 | 131.36266 | 38127 ft | 439 kts | 296° |
| 2026-05-04 18:05 | -22.29154 | 131.27921 | 38120 ft | 440 kts | 296° |
| 2026-05-04 18:05 | -22.25861 | 131.22364 | 38119 ft | 439 kts | 296° |
| 2026-05-04 18:06 | -22.20917 | 131.14033 | 38113 ft | 439 kts | 296° |
| 2026-05-04 18:06 | -22.17618 | 131.08478 | 38108 ft | 440 kts | 296° |
| 2026-05-04 18:07 | -22.14314 | 131.02922 | 38108 ft | 440 kts | 296° |
| 2026-05-04 18:07 | -22.11012 | 130.97377 | 38098 ft | 439 kts | 296° |
| 2026-05-04 18:08 | -22.07734 | 130.91876 | 38105 ft | 439 kts | 296° |
| 2026-05-04 18:08 | -22.04431 | 130.86338 | 38105 ft | 439 kts | 296° |
| 2026-05-04 18:09 | -21.97812 | 130.75260 | 38084 ft | 439 kts | 296° |
| 2026-05-04 18:10 | -21.95041 | 130.70628 | 38097 ft | 438 kts | 296° |
| 2026-05-04 18:10 | -21.91757 | 130.65147 | 38094 ft | 438 kts | 296° |
| 2026-05-04 18:11 | -21.88449 | 130.59632 | 38095 ft | 438 kts | 296° |
| 2026-05-04 18:11 | -21.85143 | 130.54123 | 38089 ft | 438 kts | 296° |
| 2026-05-04 18:12 | -21.81833 | 130.48615 | 38088 ft | 438 kts | 296° |
| 2026-05-04 18:12 | -21.78519 | 130.43104 | 38083 ft | 438 kts | 296° |
| 2026-05-04 18:13 | -21.75205 | 130.37600 | 38080 ft | 438 kts | 296° |
| 2026-05-04 18:14 | -21.70231 | 130.29349 | 38077 ft | 438 kts | 296° |
| 2026-05-04 18:14 | -21.66914 | 130.23854 | 38075 ft | 438 kts | 296° |
| 2026-05-04 18:15 | -21.60294 | 130.12906 | 38072 ft | 437 kts | 295° |
| 2026-05-04 18:16 | -21.56976 | 130.07426 | 38064 ft | 437 kts | 295° |
| 2026-05-04 18:16 | -21.53658 | 130.01950 | 38062 ft | 437 kts | 295° |
| 2026-05-04 18:17 | -21.48673 | 129.93733 | 38055 ft | 437 kts | 295° |
| 2026-05-04 18:18 | -21.43692 | 129.85540 | 38057 ft | 436 kts | 295° |
| 2026-05-04 18:18 | -21.40381 | 129.80098 | 38047 ft | 435 kts | 295° |
| 2026-05-04 18:19 | -21.35431 | 129.71970 | 38050 ft | 435 kts | 295° |
| 2026-05-04 18:19 | -21.32113 | 129.66531 | 38045 ft | 435 kts | 295° |
| 2026-05-04 18:20 | -21.28796 | 129.61098 | 38041 ft | 435 kts | 295° |
| 2026-05-04 18:20 | -21.25484 | 129.55680 | 38036 ft | 434 kts | 294° |
| 2026-05-04 18:21 | -21.22168 | 129.50258 | 38050 ft | 434 kts | 294° |
| 2026-05-04 18:21 | -21.18852 | 129.44843 | 38050 ft | 435 kts | 295° |
| 2026-05-04 18:22 | -21.15532 | 129.39426 | 38041 ft | 434 kts | 295° |
| 2026-05-04 18:22 | -21.12215 | 129.34020 | 38027 ft | 434 kts | 294° |
| 2026-05-04 18:23 | -21.08895 | 129.28615 | 38035 ft | 434 kts | 294° |
| 2026-05-04 18:23 | -21.05579 | 129.23221 | 38033 ft | 434 kts | 294° |
| 2026-05-04 18:24 | -21.02257 | 129.17821 | 38031 ft | 434 kts | 294° |
| 2026-05-04 18:24 | -20.98959 | 129.12466 | 38031 ft | 434 kts | 294° |
| 2026-05-04 18:25 | -20.95636 | 129.07074 | 38005 ft | 434 kts | 294° |
| 2026-05-04 18:25 | -20.92310 | 129.01684 | 38035 ft | 434 kts | 294° |
| 2026-05-04 18:26 | -20.88984 | 128.96300 | 38034 ft | 434 kts | 294° |
| 2026-05-04 18:26 | -20.85659 | 128.90922 | 38038 ft | 434 kts | 294° |
| 2026-05-04 18:27 | -20.82328 | 128.85539 | 38034 ft | 434 kts | 294° |
| 2026-05-04 18:27 | -20.78999 | 128.80165 | 38035 ft | 434 kts | 294° |
| 2026-05-04 18:28 | -20.75666 | 128.74788 | 38041 ft | 434 kts | 295° |
| 2026-05-04 18:28 | -20.72330 | 128.69414 | 38042 ft | 434 kts | 295° |
| 2026-05-04 18:29 | -20.68993 | 128.64041 | 38039 ft | 434 kts | 295° |
| 2026-05-04 18:29 | -20.65654 | 128.58671 | 38035 ft | 434 kts | 295° |
| 2026-05-04 18:30 | -20.60643 | 128.50620 | 38035 ft | 434 kts | 295° |
| 2026-05-04 18:31 | -20.57297 | 128.45251 | 38032 ft | 435 kts | 295° |
| 2026-05-04 18:31 | -20.53946 | 128.39879 | 38031 ft | 435 kts | 295° |
| 2026-05-04 18:32 | -20.50613 | 128.34541 | 38027 ft | 435 kts | 295° |
| 2026-05-04 18:32 | -20.47253 | 128.29165 | 38029 ft | 435 kts | 295° |
| 2026-05-04 18:33 | -20.43893 | 128.23794 | 38028 ft | 435 kts | 295° |
| 2026-05-04 18:33 | -20.40532 | 128.18426 | 37994 ft | 435 kts | 295° |
| 2026-05-04 18:34 | -20.37166 | 128.13052 | 38029 ft | 437 kts | 295° |
| 2026-05-04 18:34 | -20.33789 | 128.07668 | 38023 ft | 437 kts | 295° |
| 2026-05-04 18:35 | -20.30409 | 128.02285 | 38025 ft | 437 kts | 295° |
| 2026-05-04 18:35 | -20.27029 | 127.96907 | 38023 ft | 437 kts | 295° |
| 2026-05-04 18:36 | -20.23646 | 127.91530 | 38024 ft | 437 kts | 295° |
| 2026-05-04 18:36 | -20.20261 | 127.86153 | 38008 ft | 437 kts | 295° |
| 2026-05-04 18:37 | -20.16865 | 127.80763 | 38025 ft | 439 kts | 295° |
| 2026-05-04 18:37 | -20.13465 | 127.75373 | 38023 ft | 439 kts | 295° |
| 2026-05-04 18:38 | -20.10061 | 127.69981 | 38023 ft | 439 kts | 295° |
| 2026-05-04 18:38 | -20.06657 | 127.64595 | 38023 ft | 439 kts | 295° |
| 2026-05-04 18:39 | -20.03268 | 127.59236 | 38024 ft | 439 kts | 295° |
| 2026-05-04 18:39 | -19.99860 | 127.53853 | 38023 ft | 439 kts | 295° |
| 2026-05-04 18:40 | -19.96448 | 127.48468 | 38021 ft | 439 kts | 295° |
| 2026-05-04 18:40 | -19.93035 | 127.43087 | 38020 ft | 439 kts | 295° |
| 2026-05-04 18:41 | -19.89620 | 127.37707 | 38023 ft | 439 kts | 295° |
| 2026-05-04 18:41 | -19.86205 | 127.32332 | 38023 ft | 439 kts | 295° |
| 2026-05-04 18:42 | -19.82786 | 127.26954 | 38001 ft | 439 kts | 296° |
| 2026-05-04 18:42 | -19.79359 | 127.21569 | 38022 ft | 440 kts | 296° |
| 2026-05-04 18:43 | -19.75928 | 127.16183 | 38023 ft | 440 kts | 296° |
| 2026-05-04 18:43 | -19.72490 | 127.10794 | 38023 ft | 440 kts | 296° |
| 2026-05-04 18:44 | -19.69054 | 127.05409 | 38023 ft | 441 kts | 296° |
| 2026-05-04 18:44 | -19.65617 | 127.00028 | 38017 ft | 441 kts | 296° |
| 2026-05-04 18:45 | -19.62174 | 126.94643 | 38018 ft | 441 kts | 296° |
| 2026-05-04 18:45 | -19.58748 | 126.89290 | 38013 ft | 442 kts | 296° |
| 2026-05-04 18:46 | -19.55298 | 126.83903 | 38014 ft | 442 kts | 296° |
| 2026-05-04 18:46 | -19.51846 | 126.78519 | 38008 ft | 442 kts | 296° |
| 2026-05-04 18:47 | -19.48392 | 126.73137 | 38016 ft | 442 kts | 296° |
| 2026-05-04 18:47 | -19.44934 | 126.67752 | 38008 ft | 441 kts | 296° |
| 2026-05-04 18:48 | -19.41479 | 126.62380 | 38003 ft | 442 kts | 296° |
| 2026-05-04 18:48 | -19.38011 | 126.56998 | 38007 ft | 442 kts | 296° |
| 2026-05-04 18:49 | -19.34537 | 126.51615 | 38004 ft | 443 kts | 296° |
| 2026-05-04 18:49 | -19.31062 | 126.46237 | 38004 ft | 442 kts | 296° |
| 2026-05-04 18:50 | -19.27588 | 126.40862 | 38004 ft | 442 kts | 296° |
| 2026-05-04 18:50 | -19.24111 | 126.35488 | 38004 ft | 442 kts | 296° |
| 2026-05-04 18:51 | -19.20634 | 126.30117 | 38006 ft | 443 kts | 296° |
| 2026-05-04 18:51 | -19.17151 | 126.24742 | 38017 ft | 443 kts | 297° |
| 2026-05-04 18:52 | -19.13667 | 126.19372 | 37993 ft | 442 kts | 296° |
| 2026-05-04 18:52 | -19.10206 | 126.14041 | 37990 ft | 443 kts | 296° |
| 2026-05-04 18:53 | -19.06718 | 126.08672 | 38005 ft | 442 kts | 296° |
| 2026-05-04 18:53 | -19.03232 | 126.03311 | 37983 ft | 442 kts | 297° |
| 2026-05-04 18:54 | -18.99740 | 125.97946 | 37987 ft | 443 kts | 297° |
| 2026-05-04 18:54 | -18.96249 | 125.92587 | 37993 ft | 443 kts | 297° |
| 2026-05-04 18:55 | -18.92754 | 125.87227 | 37993 ft | 443 kts | 297° |
| 2026-05-04 18:55 | -18.87507 | 125.79187 | 37996 ft | 443 kts | 297° |
| 2026-05-04 18:56 | -18.84008 | 125.73833 | 37994 ft | 443 kts | 297° |
| 2026-05-04 18:56 | -18.81097 | 125.69381 | 37983 ft | 443 kts | 297° |
| 2026-05-04 18:57 | -18.77024 | 125.63157 | 37988 ft | 443 kts | 297° |
| 2026-05-04 18:57 | -18.73517 | 125.57804 | 37988 ft | 444 kts | 297° |
| 2026-05-04 18:58 | -18.70007 | 125.52449 | 37987 ft | 443 kts | 297° |
| 2026-05-04 18:58 | -18.67066 | 125.47967 | 37990 ft | 443 kts | 297° |
| 2026-05-04 18:59 | -18.63580 | 125.42659 | 37989 ft | 443 kts | 297° |
| 2026-05-04 18:59 | -18.60063 | 125.37307 | 37981 ft | 444 kts | 297° |
| 2026-05-04 19:00 | -18.56543 | 125.31954 | 37990 ft | 444 kts | 297° |
| 2026-05-04 19:00 | -18.53020 | 125.26603 | 37990 ft | 444 kts | 297° |
| 2026-05-04 19:01 | -18.49491 | 125.21247 | 37986 ft | 444 kts | 297° |
| 2026-05-04 19:01 | -18.45966 | 125.15902 | 37986 ft | 444 kts | 297° |
| 2026-05-04 19:02 | -18.42440 | 125.10558 | 37985 ft | 444 kts | 297° |
| 2026-05-04 19:02 | -18.38910 | 125.05215 | 37976 ft | 445 kts | 297° |
| 2026-05-04 19:03 | -18.35372 | 124.99861 | 37982 ft | 445 kts | 297° |
| 2026-05-04 19:03 | -18.31831 | 124.94509 | 37984 ft | 445 kts | 297° |
| 2026-05-04 19:04 | -18.28290 | 124.89163 | 37979 ft | 445 kts | 297° |
| 2026-05-04 19:04 | -18.24750 | 124.83822 | 37980 ft | 445 kts | 297° |
| 2026-05-04 19:05 | -18.21206 | 124.78478 | 37984 ft | 445 kts | 297° |
| 2026-05-04 19:05 | -18.17661 | 124.73136 | 37973 ft | 445 kts | 298° |
| 2026-05-04 19:06 | -18.14136 | 124.67830 | 37978 ft | 446 kts | 298° |
| 2026-05-04 19:06 | -18.10584 | 124.62488 | 37977 ft | 446 kts | 298° |
| 2026-05-04 19:07 | -18.07029 | 124.57146 | 37971 ft | 446 kts | 298° |
| 2026-05-04 19:07 | -18.03475 | 124.51809 | 37991 ft | 446 kts | 298° |
| 2026-05-04 19:08 | -17.99918 | 124.46474 | 37978 ft | 446 kts | 298° |
| 2026-05-04 19:08 | -17.96358 | 124.41136 | 37980 ft | 446 kts | 298° |
| 2026-05-04 19:09 | -17.92800 | 124.35807 | 37978 ft | 446 kts | 298° |
| 2026-05-04 19:09 | -17.89241 | 124.30480 | 37980 ft | 446 kts | 298° |
| 2026-05-04 19:10 | -17.85680 | 124.25154 | 37982 ft | 446 kts | 298° |
| 2026-05-04 19:10 | -17.82118 | 124.19832 | 37981 ft | 446 kts | 298° |
| 2026-05-04 19:11 | -17.78552 | 124.14508 | 37975 ft | 446 kts | 298° |
| 2026-05-04 19:11 | -17.74987 | 124.09189 | 37949 ft | 446 kts | 298° |
| 2026-05-04 19:12 | -17.69626 | 124.01197 | 37972 ft | 447 kts | 298° |
| 2026-05-04 19:13 | -17.66067 | 123.95899 | 37970 ft | 447 kts | 298° |
| 2026-05-04 19:13 | -17.62482 | 123.90567 | 37966 ft | 447 kts | 298° |
| 2026-05-04 19:14 | -17.58773 | 123.85302 | 37966 ft | 453 kts | 304° |
| 2026-05-04 19:14 | -17.54405 | 123.80496 | 37970 ft | 457 kts | 307° |
| 2026-05-04 19:15 | -17.49889 | 123.75789 | 37969 ft | 458 kts | 308° |
| 2026-05-04 19:15 | -17.45341 | 123.71089 | 37969 ft | 459 kts | 308° |
| 2026-05-04 19:16 | -17.40828 | 123.66413 | 37966 ft | 460 kts | 308° |
| 2026-05-04 19:16 | -17.36288 | 123.61699 | 37971 ft | 460 kts | 308° |
| 2026-05-04 19:17 | -17.31747 | 123.56982 | 37968 ft | 460 kts | 308° |
| 2026-05-04 19:17 | -17.27210 | 123.52273 | 37959 ft | 460 kts | 308° |
| 2026-05-04 19:18 | -17.22659 | 123.47552 | 37967 ft | 461 kts | 308° |
| 2026-05-04 19:18 | -17.18100 | 123.42828 | 37971 ft | 461 kts | 308° |
| 2026-05-04 19:19 | -17.13539 | 123.38107 | 37973 ft | 461 kts | 308° |
| 2026-05-04 19:19 | -17.08975 | 123.33385 | 37974 ft | 461 kts | 308° |
| 2026-05-04 19:20 | -17.04415 | 123.28670 | 37968 ft | 461 kts | 308° |
| 2026-05-04 19:20 | -16.99845 | 123.23948 | 37968 ft | 462 kts | 308° |
| 2026-05-04 19:21 | -16.95298 | 123.19253 | 37968 ft | 463 kts | 308° |
| 2026-05-04 19:21 | -16.90714 | 123.14525 | 37967 ft | 463 kts | 309° |
| 2026-05-04 19:22 | -16.86131 | 123.09800 | 37963 ft | 463 kts | 309° |
| 2026-05-04 19:22 | -16.81545 | 123.05076 | 37963 ft | 463 kts | 309° |
| 2026-05-04 19:23 | -16.76952 | 123.00348 | 37958 ft | 464 kts | 309° |
| 2026-05-04 19:23 | -16.72349 | 122.95612 | 37958 ft | 464 kts | 309° |
| 2026-05-04 19:24 | -16.67748 | 122.90883 | 37954 ft | 465 kts | 309° |
| 2026-05-04 19:24 | -16.63144 | 122.86154 | 37952 ft | 465 kts | 309° |
| 2026-05-04 19:25 | -16.58537 | 122.81425 | 37952 ft | 465 kts | 309° |
| 2026-05-04 19:25 | -16.53931 | 122.76701 | 37937 ft | 464 kts | 309° |
| 2026-05-04 19:26 | -16.49349 | 122.72003 | 37951 ft | 465 kts | 309° |
| 2026-05-04 19:26 | -16.44731 | 122.67272 | 37949 ft | 465 kts | 309° |
| 2026-05-04 19:27 | -16.40112 | 122.62545 | 37947 ft | 465 kts | 309° |
| 2026-05-04 19:27 | -16.35486 | 122.57813 | 37950 ft | 465 kts | 309° |
| 2026-05-04 19:28 | -16.30860 | 122.53085 | 37946 ft | 465 kts | 309° |
| 2026-05-04 19:28 | -16.26240 | 122.48366 | 37948 ft | 466 kts | 309° |
| 2026-05-04 19:29 | -16.21611 | 122.43640 | 37945 ft | 466 kts | 310° |
| 2026-05-04 19:29 | -16.16979 | 122.38915 | 37944 ft | 466 kts | 310° |
| 2026-05-04 19:30 | -16.12345 | 122.34193 | 37948 ft | 466 kts | 310° |
| 2026-05-04 19:30 | -16.07712 | 122.29473 | 37940 ft | 466 kts | 310° |
| 2026-05-04 19:31 | -16.03112 | 122.24792 | 37936 ft | 466 kts | 310° |
| 2026-05-04 19:31 | -15.98476 | 122.20075 | 37942 ft | 467 kts | 310° |
| 2026-05-04 19:32 | -15.93832 | 122.15353 | 37944 ft | 467 kts | 310° |
| 2026-05-04 19:32 | -15.89185 | 122.10633 | 37944 ft | 467 kts | 310° |
| 2026-05-04 19:33 | -15.84538 | 122.05916 | 37942 ft | 467 kts | 310° |
| 2026-05-04 19:33 | -15.79888 | 122.01200 | 37941 ft | 467 kts | 310° |
| 2026-05-04 19:34 | -15.75245 | 121.96492 | 37933 ft | 467 kts | 310° |
| 2026-05-04 19:34 | -15.70590 | 121.91777 | 37938 ft | 468 kts | 310° |
| 2026-05-04 19:35 | -15.65933 | 121.87062 | 37940 ft | 468 kts | 310° |
| 2026-05-04 19:35 | -15.61275 | 121.82349 | 37941 ft | 468 kts | 310° |
| 2026-05-04 19:36 | -15.56645 | 121.77668 | 37938 ft | 468 kts | 310° |
| 2026-05-04 19:36 | -15.51989 | 121.72965 | 37938 ft | 467 kts | 310° |
| 2026-05-04 19:37 | -15.47334 | 121.68264 | 37937 ft | 467 kts | 310° |
| 2026-05-04 19:37 | -15.42679 | 121.63567 | 37938 ft | 467 kts | 310° |
| 2026-05-04 19:38 | -15.38023 | 121.58873 | 37940 ft | 467 kts | 310° |
| 2026-05-04 19:38 | -15.33364 | 121.54177 | 37936 ft | 467 kts | 310° |
| 2026-05-04 19:39 | -15.28704 | 121.49484 | 37938 ft | 467 kts | 310° |
| 2026-05-04 19:39 | -15.24042 | 121.44793 | 37935 ft | 467 kts | 311° |
| 2026-05-04 19:40 | -15.19371 | 121.40095 | 37935 ft | 468 kts | 311° |
| 2026-05-04 19:40 | -15.14698 | 121.35399 | 37936 ft | 468 kts | 311° |
| 2026-05-04 19:41 | -15.10023 | 121.30703 | 37938 ft | 468 kts | 311° |
| 2026-05-04 19:41 | -15.05346 | 121.26009 | 37932 ft | 468 kts | 311° |
| 2026-05-04 19:42 | -15.00667 | 121.21316 | 37935 ft | 468 kts | 311° |
| 2026-05-04 19:42 | -14.96017 | 121.16653 | 37935 ft | 469 kts | 311° |
| 2026-05-04 19:43 | -14.91328 | 121.11956 | 37933 ft | 470 kts | 311° |
| 2026-05-04 19:43 | -14.86635 | 121.07258 | 37933 ft | 470 kts | 311° |
| 2026-05-04 19:44 | -14.81935 | 121.02556 | 37933 ft | 470 kts | 311° |
| 2026-05-04 19:44 | -14.77236 | 120.97857 | 37933 ft | 470 kts | 311° |
| 2026-05-04 19:45 | -14.72540 | 120.93164 | 37927 ft | 470 kts | 312° |
| 2026-05-04 19:45 | -14.67866 | 120.88496 | 37931 ft | 471 kts | 312° |
| 2026-05-04 19:46 | -14.63145 | 120.83785 | 37932 ft | 471 kts | 312° |
| 2026-05-04 19:46 | -14.58427 | 120.79079 | 37932 ft | 471 kts | 312° |
| 2026-05-04 19:47 | -14.54503 | 120.75167 | 37933 ft | 471 kts | 312° |
| 2026-05-04 19:47 | -14.49781 | 120.70463 | 37928 ft | 471 kts | 312° |
| 2026-05-04 19:48 | -14.45057 | 120.65760 | 37936 ft | 472 kts | 313° |
| 2026-05-04 19:48 | -14.40320 | 120.61046 | 37922 ft | 474 kts | 313° |
| 2026-05-04 19:49 | -14.35575 | 120.56328 | 37931 ft | 474 kts | 313° |
| 2026-05-04 19:49 | -14.30823 | 120.51606 | 37929 ft | 474 kts | 313° |
| 2026-05-04 19:50 | -14.26071 | 120.46887 | 37929 ft | 474 kts | 313° |
| 2026-05-04 19:50 | -14.21320 | 120.42171 | 37937 ft | 474 kts | 313° |
| 2026-05-04 19:51 | -14.16566 | 120.37456 | 37914 ft | 474 kts | 313° |
| 2026-05-04 19:51 | -14.11812 | 120.32744 | 37916 ft | 474 kts | 313° |
| 2026-05-04 19:52 | -14.07057 | 120.28033 | 37929 ft | 474 kts | 313° |
| 2026-05-04 19:52 | -14.02302 | 120.23325 | 37920 ft | 474 kts | 313° |
| 2026-05-04 19:53 | -13.97544 | 120.18617 | 37921 ft | 474 kts | 313° |
| 2026-05-04 19:53 | -13.92814 | 120.13939 | 37926 ft | 474 kts | 313° |
| 2026-05-04 19:54 | -13.88052 | 120.09233 | 37912 ft | 475 kts | 313° |
| 2026-05-04 19:54 | -13.83292 | 120.04531 | 37926 ft | 474 kts | 313° |
| 2026-05-04 19:55 | -13.78533 | 119.99833 | 37927 ft | 474 kts | 313° |
| 2026-05-04 19:55 | -13.73769 | 119.95133 | 37929 ft | 474 kts | 313° |
| 2026-05-04 19:56 | -13.69010 | 119.90441 | 37918 ft | 474 kts | 313° |
| 2026-05-04 19:56 | -13.64246 | 119.85747 | 37923 ft | 474 kts | 313° |
| 2026-05-04 19:57 | -13.59477 | 119.81050 | 37924 ft | 475 kts | 313° |
| 2026-05-04 19:57 | -13.54701 | 119.76350 | 37924 ft | 475 kts | 313° |
| 2026-05-04 19:58 | -13.49957 | 119.71683 | 37926 ft | 475 kts | 313° |
| 2026-05-04 19:58 | -13.45184 | 119.66991 | 37924 ft | 475 kts | 313° |
| 2026-05-04 19:59 | -13.40407 | 119.62297 | 37920 ft | 475 kts | 313° |
| 2026-05-04 19:59 | -13.35631 | 119.57608 | 37920 ft | 475 kts | 313° |
| 2026-05-04 20:00 | -13.30841 | 119.52906 | 37927 ft | 477 kts | 313° |
| 2026-05-04 20:00 | -13.26050 | 119.48208 | 37926 ft | 476 kts | 313° |
| 2026-05-04 20:01 | -13.21256 | 119.43509 | 37926 ft | 476 kts | 313° |
| 2026-05-04 20:01 | -13.16468 | 119.38818 | 37924 ft | 476 kts | 313° |
| 2026-05-04 20:02 | -13.11682 | 119.34132 | 37921 ft | 476 kts | 313° |
| 2026-05-04 20:02 | -13.06923 | 119.29474 | 37918 ft | 476 kts | 313° |
| 2026-05-04 20:03 | -13.02121 | 119.24777 | 37923 ft | 478 kts | 313° |
| 2026-05-04 20:03 | -12.97313 | 119.20078 | 37924 ft | 477 kts | 313° |
| 2026-05-04 20:04 | -12.92504 | 119.15380 | 37921 ft | 477 kts | 313° |
| 2026-05-04 20:04 | -12.87700 | 119.10689 | 37921 ft | 477 kts | 313° |
| 2026-05-04 20:05 | -12.82892 | 119.05998 | 37922 ft | 477 kts | 313° |
| 2026-05-04 20:05 | -12.78081 | 119.01306 | 37922 ft | 477 kts | 313° |
| 2026-05-04 20:06 | -12.73304 | 118.96649 | 37921 ft | 477 kts | 313° |
| 2026-05-04 20:06 | -12.68500 | 118.91969 | 37918 ft | 476 kts | 313° |
| 2026-05-04 20:07 | -12.63699 | 118.87295 | 37925 ft | 476 kts | 313° |
| 2026-05-04 20:07 | -12.58902 | 118.82626 | 37922 ft | 476 kts | 313° |
| 2026-05-04 20:08 | -12.54101 | 118.77956 | 37922 ft | 476 kts | 313° |
| 2026-05-04 20:08 | -12.49300 | 118.73289 | 37919 ft | 477 kts | 313° |
| 2026-05-04 20:09 | -12.44486 | 118.68611 | 37918 ft | 477 kts | 313° |
| 2026-05-04 20:09 | -12.39668 | 118.63934 | 37918 ft | 477 kts | 313° |
| 2026-05-04 20:10 | -12.34853 | 118.59261 | 37918 ft | 477 kts | 313° |
| 2026-05-04 20:10 | -12.30043 | 118.54595 | 37919 ft | 477 kts | 313° |
| 2026-05-04 20:11 | -12.25227 | 118.49925 | 37914 ft | 477 kts | 313° |
| 2026-05-04 20:11 | -12.20408 | 118.45256 | 37916 ft | 478 kts | 313° |
| 2026-05-04 20:12 | -12.15611 | 118.40609 | 37918 ft | 479 kts | 313° |
| 2026-05-04 20:12 | -12.10776 | 118.35929 | 37924 ft | 479 kts | 313° |
| 2026-05-04 20:13 | -12.05943 | 118.31254 | 37920 ft | 478 kts | 313° |
| 2026-05-04 20:13 | -12.01108 | 118.26579 | 37915 ft | 478 kts | 313° |
| 2026-05-04 20:14 | -11.96275 | 118.21911 | 37915 ft | 478 kts | 313° |
| 2026-05-04 20:14 | -11.91440 | 118.17240 | 37911 ft | 479 kts | 314° |
| 2026-05-04 20:15 | -11.86593 | 118.12558 | 37914 ft | 480 kts | 314° |
| 2026-05-04 20:15 | -11.81741 | 118.07877 | 37913 ft | 480 kts | 314° |
| 2026-05-04 20:16 | -11.76885 | 118.03193 | 37914 ft | 479 kts | 314° |
| 2026-05-04 20:16 | -11.72064 | 117.98547 | 37914 ft | 479 kts | 314° |
| 2026-05-04 20:17 | -11.67222 | 117.93882 | 37914 ft | 479 kts | 314° |
| 2026-05-04 20:17 | -11.62373 | 117.89212 | 37912 ft | 479 kts | 314° |
| 2026-05-04 20:18 | -11.57519 | 117.84540 | 37914 ft | 480 kts | 314° |
| 2026-05-04 20:18 | -11.52661 | 117.79867 | 37913 ft | 480 kts | 314° |
| 2026-05-04 20:19 | -11.47803 | 117.75196 | 37913 ft | 480 kts | 314° |
| 2026-05-04 20:19 | -11.42939 | 117.70522 | 37914 ft | 480 kts | 314° |
| 2026-05-04 20:20 | -11.38081 | 117.65856 | 37912 ft | 480 kts | 314° |
| 2026-05-04 20:20 | -11.33222 | 117.61190 | 37910 ft | 480 kts | 314° |
| 2026-05-04 20:21 | -11.28356 | 117.56521 | 37914 ft | 481 kts | 314° |
| 2026-05-04 20:21 | -11.21050 | 117.49514 | 37911 ft | 481 kts | 314° |
| 2026-05-04 20:22 | -11.16212 | 117.44878 | 37908 ft | 481 kts | 314° |
| 2026-05-04 20:22 | -11.11344 | 117.40214 | 37907 ft | 480 kts | 314° |
| 2026-05-04 20:23 | -11.06474 | 117.35551 | 37909 ft | 480 kts | 314° |
| 2026-05-04 20:23 | -11.01605 | 117.30891 | 37908 ft | 481 kts | 314° |
| 2026-05-04 20:24 | -10.96723 | 117.26220 | 37908 ft | 482 kts | 314° |
| 2026-05-04 20:24 | -10.91837 | 117.21549 | 37906 ft | 482 kts | 314° |
| 2026-05-04 20:25 | -10.86948 | 117.16877 | 37901 ft | 482 kts | 314° |
| 2026-05-04 20:25 | -10.82062 | 117.12209 | 37905 ft | 482 kts | 314° |
| 2026-05-04 20:26 | -10.77173 | 117.07542 | 37907 ft | 482 kts | 314° |
| 2026-05-04 20:26 | -10.72283 | 117.02875 | 37908 ft | 483 kts | 314° |
| 2026-05-04 20:27 | -10.67377 | 116.98194 | 37905 ft | 484 kts | 315° |
| 2026-05-04 20:27 | -10.62469 | 116.93515 | 37904 ft | 484 kts | 315° |
| 2026-05-04 20:28 | -10.57557 | 116.88835 | 37903 ft | 484 kts | 314° |
| 2026-05-04 20:28 | -10.52649 | 116.84159 | 37902 ft | 483 kts | 315° |
| 2026-05-04 20:29 | -10.47773 | 116.79516 | 37902 ft | 483 kts | 315° |
| 2026-05-04 20:29 | -10.42868 | 116.74848 | 37902 ft | 483 kts | 315° |
| 2026-05-04 20:30 | -10.37963 | 116.70182 | 37904 ft | 483 kts | 315° |
| 2026-05-04 20:30 | -10.33056 | 116.65516 | 37902 ft | 483 kts | 315° |
| 2026-05-04 20:31 | -10.28149 | 116.60852 | 37899 ft | 483 kts | 315° |
| 2026-05-04 20:31 | -10.23240 | 116.56189 | 37897 ft | 483 kts | 315° |
| 2026-05-04 20:32 | -10.18334 | 116.51530 | 37904 ft | 483 kts | 315° |
| 2026-05-04 20:32 | -10.13429 | 116.46875 | 37895 ft | 482 kts | 315° |
| 2026-05-04 20:33 | -10.08519 | 116.42216 | 37899 ft | 484 kts | 315° |
| 2026-05-04 20:33 | -10.03601 | 116.37552 | 37899 ft | 483 kts | 315° |
| 2026-05-04 20:34 | -9.98717 | 116.32923 | 37899 ft | 484 kts | 315° |
| 2026-05-04 20:34 | -9.93798 | 116.28262 | 37899 ft | 484 kts | 315° |
| 2026-05-04 20:35 | -9.88882 | 116.23607 | 37901 ft | 483 kts | 315° |
| 2026-05-04 20:35 | -9.83966 | 116.18952 | 37902 ft | 484 kts | 315° |
| 2026-05-04 20:36 | -9.79845 | 116.15052 | 37898 ft | 483 kts | 315° |
| 2026-05-04 20:36 | -9.74928 | 116.10401 | 37895 ft | 483 kts | 315° |
| 2026-05-04 20:37 | -9.70013 | 116.05753 | 37896 ft | 484 kts | 315° |
| 2026-05-04 20:37 | -9.65096 | 116.01106 | 37894 ft | 483 kts | 315° |
| 2026-05-04 20:38 | -9.60210 | 115.96490 | 37898 ft | 483 kts | 315° |
| 2026-05-04 20:38 | -9.55284 | 115.91838 | 37896 ft | 483 kts | 315° |
| 2026-05-04 20:39 | -9.50369 | 115.87198 | 37893 ft | 483 kts | 315° |
| 2026-05-04 20:39 | -9.45439 | 115.82546 | 37894 ft | 485 kts | 315° |
| 2026-05-04 20:40 | -9.40497 | 115.77885 | 37895 ft | 485 kts | 315° |
| 2026-05-04 20:40 | -9.35558 | 115.73230 | 37894 ft | 485 kts | 315° |
| 2026-05-04 20:41 | -9.30618 | 115.68574 | 37897 ft | 486 kts | 315° |
| 2026-05-04 20:41 | -9.25676 | 115.63918 | 37894 ft | 485 kts | 315° |
| 2026-05-04 20:42 | -9.20737 | 115.59267 | 37890 ft | 485 kts | 315° |
| 2026-05-04 20:42 | -9.15781 | 115.54602 | 37891 ft | 488 kts | 315° |
| 2026-05-04 20:43 | -9.10845 | 115.49957 | 37891 ft | 488 kts | 315° |
| 2026-05-04 20:43 | -9.05872 | 115.45280 | 37892 ft | 488 kts | 315° |
| 2026-05-04 20:44 | -9.00895 | 115.40602 | 37890 ft | 488 kts | 315° |
| 2026-05-04 20:44 | -8.95921 | 115.35927 | 37890 ft | 488 kts | 315° |
| 2026-05-04 20:45 | -8.90948 | 115.31255 | 37884 ft | 488 kts | 315° |
| 2026-05-04 20:45 | -8.85968 | 115.26578 | 37900 ft | 489 kts | 315° |
| 2026-05-04 20:46 | -8.80990 | 115.21905 | 37884 ft | 489 kts | 315° |
| 2026-05-04 20:46 | -8.75955 | 115.17288 | 37899 ft | 490 kts | 320° |
| 2026-05-04 20:47 | -8.70261 | 115.13495 | 37897 ft | 491 kts | 327° |
| 2026-05-04 20:47 | -8.64402 | 115.10021 | 37883 ft | 491 kts | 328° |
| 2026-05-04 20:48 | -8.58475 | 115.06579 | 37890 ft | 491 kts | 328° |
| 2026-05-04 20:48 | -8.52556 | 115.03130 | 37895 ft | 491 kts | 328° |
| 2026-05-04 20:49 | -8.46644 | 114.99669 | 37909 ft | 490 kts | 328° |
| 2026-05-04 20:49 | -8.40746 | 114.96212 | 37914 ft | 489 kts | 328° |
| 2026-05-04 20:50 | -8.34861 | 114.92762 | 37913 ft | 489 kts | 328° |
| 2026-05-04 20:50 | -8.28976 | 114.89315 | 37898 ft | 489 kts | 328° |
| 2026-05-04 20:51 | -8.23092 | 114.85870 | 37889 ft | 489 kts | 328° |
| 2026-05-04 20:51 | -8.17194 | 114.82418 | 37892 ft | 490 kts | 328° |
| 2026-05-04 20:52 | -8.11292 | 114.78966 | 37880 ft | 490 kts | 328° |
| 2026-05-04 20:52 | -8.05426 | 114.75535 | 37878 ft | 490 kts | 328° |
| 2026-05-04 20:53 | -7.99523 | 114.72084 | 37879 ft | 490 kts | 328° |
| 2026-05-04 20:53 | -7.93617 | 114.68633 | 37883 ft | 490 kts | 328° |
| 2026-05-04 20:54 | -7.87713 | 114.65183 | 37886 ft | 491 kts | 329° |
| 2026-05-04 20:54 | -7.81797 | 114.61728 | 37883 ft | 491 kts | 328° |
| 2026-05-04 20:55 | -7.75877 | 114.58272 | 37885 ft | 492 kts | 329° |
| 2026-05-04 20:55 | -7.69955 | 114.54815 | 37879 ft | 491 kts | 329° |
| 2026-05-04 20:56 | -7.64038 | 114.51362 | 37880 ft | 492 kts | 329° |
| 2026-05-04 20:56 | -7.58118 | 114.47909 | 37878 ft | 492 kts | 329° |
| 2026-05-04 20:57 | -7.52185 | 114.44450 | 37879 ft | 492 kts | 329° |
| 2026-05-04 20:57 | -7.46293 | 114.41016 | 37874 ft | 492 kts | 329° |
| 2026-05-04 20:58 | -7.40321 | 114.37537 | 37880 ft | 492 kts | 329° |
| 2026-05-04 20:58 | -7.34410 | 114.34076 | 37873 ft | 491 kts | 329° |
| 2026-05-04 20:59 | -7.28541 | 114.30641 | 37854 ft | 491 kts | 329° |
| 2026-05-04 20:59 | -7.22631 | 114.27186 | 37853 ft | 491 kts | 329° |
| 2026-05-04 21:00 | -7.16722 | 114.23735 | 37871 ft | 491 kts | 329° |
| 2026-05-04 21:00 | -7.10814 | 114.20285 | 37874 ft | 491 kts | 329° |
| 2026-05-04 21:01 | -7.04898 | 114.16832 | 37873 ft | 491 kts | 329° |
| 2026-05-04 21:01 | -6.98983 | 114.13381 | 37854 ft | 491 kts | 329° |
| 2026-05-04 21:02 | -6.93072 | 114.09933 | 37856 ft | 491 kts | 329° |
| 2026-05-04 21:02 | -6.87174 | 114.06493 | 37854 ft | 488 kts | 330° |
| 2026-05-04 21:03 | -6.81311 | 114.03075 | 37856 ft | 486 kts | 330° |
| 2026-05-04 21:03 | -6.75471 | 113.99672 | 37854 ft | 485 kts | 330° |
| 2026-05-04 21:04 | -6.69670 | 113.96292 | 37852 ft | 485 kts | 330° |
| 2026-05-04 21:04 | -6.63831 | 113.92890 | 37856 ft | 485 kts | 330° |
| 2026-05-04 21:05 | -6.57988 | 113.89488 | 37867 ft | 485 kts | 330° |
| 2026-05-04 21:05 | -6.52148 | 113.86088 | 37868 ft | 485 kts | 330° |
| 2026-05-04 21:06 | -6.46305 | 113.82688 | 37872 ft | 485 kts | 330° |
| 2026-05-04 21:06 | -6.40460 | 113.79318 | 37876 ft | 485 kts | 330° |
| 2026-05-04 21:07 | -6.34598 | 113.75952 | 37869 ft | 485 kts | 330° |
| 2026-05-04 21:07 | -6.28741 | 113.72588 | 37859 ft | 484 kts | 330° |
| 2026-05-04 21:08 | -6.22892 | 113.69227 | 37868 ft | 484 kts | 331° |
| 2026-05-04 21:08 | -6.17039 | 113.65865 | 37867 ft | 485 kts | 331° |
| 2026-05-04 21:09 | -6.11187 | 113.62503 | 37871 ft | 485 kts | 331° |
| 2026-05-04 21:09 | -6.05332 | 113.59141 | 37856 ft | 485 kts | 331° |
| 2026-05-04 21:10 | -5.99474 | 113.55778 | 37861 ft | 485 kts | 331° |
| 2026-05-04 21:10 | -5.93619 | 113.52417 | 37861 ft | 485 kts | 331° |
| 2026-05-04 21:11 | -5.87763 | 113.49057 | 37857 ft | 484 kts | 331° |
| 2026-05-04 21:11 | -5.81949 | 113.45722 | 37859 ft | 484 kts | 331° |
| 2026-05-04 21:12 | -5.76090 | 113.42361 | 37861 ft | 484 kts | 331° |
| 2026-05-04 21:12 | -5.70233 | 113.39003 | 37860 ft | 485 kts | 331° |
| 2026-05-04 21:13 | -5.64374 | 113.35644 | 37862 ft | 485 kts | 331° |
| 2026-05-04 21:13 | -5.58508 | 113.32282 | 37860 ft | 485 kts | 332° |
| 2026-05-04 21:14 | -5.52644 | 113.28922 | 37876 ft | 485 kts | 332° |
| 2026-05-04 21:14 | -5.46778 | 113.25562 | 37876 ft | 486 kts | 332° |
| 2026-05-04 21:15 | -5.40948 | 113.22224 | 37876 ft | 486 kts | 332° |
| 2026-05-04 21:15 | -5.35076 | 113.18861 | 37873 ft | 486 kts | 332° |
| 2026-05-04 21:16 | -5.29211 | 113.15504 | 37874 ft | 486 kts | 332° |
| 2026-05-04 21:16 | -5.23333 | 113.12139 | 37874 ft | 486 kts | 332° |
| 2026-05-04 21:17 | -5.17441 | 113.08768 | 37873 ft | 488 kts | 332° |
| 2026-05-04 21:17 | -5.11538 | 113.05390 | 37861 ft | 488 kts | 332° |
| 2026-05-04 21:18 | -5.05636 | 113.02015 | 37859 ft | 488 kts | 332° |
| 2026-05-04 21:18 | -4.99733 | 112.98639 | 37859 ft | 488 kts | 332° |
| 2026-05-04 21:19 | -4.93868 | 112.95285 | 37859 ft | 488 kts | 332° |
| 2026-05-04 21:19 | -4.87961 | 112.91909 | 37852 ft | 488 kts | 332° |
| 2026-05-04 21:20 | -4.82055 | 112.88533 | 37854 ft | 488 kts | 332° |
| 2026-05-04 21:20 | -4.76157 | 112.85164 | 37854 ft | 488 kts | 332° |
| 2026-05-04 21:21 | -4.70256 | 112.81792 | 37853 ft | 488 kts | 332° |
| 2026-05-04 21:21 | -4.64355 | 112.78422 | 37854 ft | 488 kts | 332° |
| 2026-05-04 21:22 | -4.58456 | 112.75054 | 37856 ft | 487 kts | 331° |
| 2026-05-04 21:22 | -4.52556 | 112.71685 | 37866 ft | 489 kts | 332° |
| 2026-05-04 21:23 | -4.46634 | 112.68305 | 37864 ft | 490 kts | 332° |
| 2026-05-04 21:23 | -4.40711 | 112.64924 | 37864 ft | 490 kts | 332° |
| 2026-05-04 21:24 | -4.35788 | 112.62115 | 37853 ft | 490 kts | 332° |
| 2026-05-04 21:24 | -4.28900 | 112.58185 | 37869 ft | 490 kts | 332° |
| 2026-05-04 21:25 | -4.22976 | 112.54806 | 37869 ft | 490 kts | 332° |
| 2026-05-04 21:25 | -4.18005 | 112.51971 | 37858 ft | 492 kts | 332° |
| 2026-05-04 21:26 | -4.11068 | 112.48016 | 37866 ft | 494 kts | 332° |
| 2026-05-04 21:26 | -4.06104 | 112.45186 | 37868 ft | 494 kts | 332° |
| 2026-05-04 21:27 | -4.00137 | 112.41784 | 37865 ft | 493 kts | 332° |
| 2026-05-04 21:27 | -3.94176 | 112.38386 | 37864 ft | 493 kts | 332° |
| 2026-05-04 21:28 | -3.88210 | 112.34987 | 37847 ft | 493 kts | 332° |
| 2026-05-04 21:28 | -3.82239 | 112.31585 | 37861 ft | 494 kts | 331° |
| 2026-05-04 21:29 | -3.76253 | 112.28175 | 37854 ft | 494 kts | 331° |
| 2026-05-04 21:29 | -3.70271 | 112.24768 | 37849 ft | 494 kts | 331° |
| 2026-05-04 21:30 | -3.64280 | 112.21356 | 37869 ft | 495 kts | 331° |
| 2026-05-04 21:30 | -3.58297 | 112.17950 | 37866 ft | 495 kts | 332° |
| 2026-05-04 21:31 | -3.49362 | 112.12863 | 37851 ft | 495 kts | 331° |
| 2026-05-04 21:32 | -3.43370 | 112.09452 | 37869 ft | 496 kts | 331° |
| 2026-05-04 21:32 | -3.37375 | 112.06041 | 37867 ft | 495 kts | 331° |
| 2026-05-04 21:33 | -3.31383 | 112.02631 | 37870 ft | 495 kts | 331° |
| 2026-05-04 21:33 | -3.25393 | 111.99223 | 37867 ft | 495 kts | 331° |
| 2026-05-04 21:34 | -3.19399 | 111.95813 | 37870 ft | 495 kts | 331° |
| 2026-05-04 21:34 | -3.13403 | 111.92403 | 37867 ft | 495 kts | 331° |
| 2026-05-04 21:35 | -3.07410 | 111.88995 | 37870 ft | 495 kts | 331° |
| 2026-05-04 21:35 | -3.01417 | 111.85587 | 37870 ft | 495 kts | 331° |
| 2026-05-04 21:36 | -2.95424 | 111.82180 | 37871 ft | 495 kts | 331° |
| 2026-05-04 21:36 | -2.89473 | 111.78797 | 37873 ft | 495 kts | 331° |
| 2026-05-04 21:37 | -2.83467 | 111.75383 | 37872 ft | 497 kts | 331° |
| 2026-05-04 21:37 | -2.77449 | 111.71963 | 37855 ft | 497 kts | 331° |
| 2026-05-04 21:38 | -2.71572 | 111.68330 | 37873 ft | 497 kts | 322° |
| 2026-05-04 21:38 | -2.66285 | 111.63870 | 37858 ft | 497 kts | 319° |
| 2026-05-04 21:39 | -2.61153 | 111.59284 | 37875 ft | 498 kts | 319° |
| 2026-05-04 21:39 | -2.56009 | 111.54650 | 37875 ft | 498 kts | 319° |
| 2026-05-04 21:40 | -2.50854 | 111.50026 | 37875 ft | 498 kts | 319° |
| 2026-05-04 21:40 | -2.45688 | 111.45410 | 37875 ft | 499 kts | 319° |
| 2026-05-04 21:41 | -2.40500 | 111.40779 | 37880 ft | 501 kts | 319° |
| 2026-05-04 21:41 | -2.35303 | 111.36139 | 37879 ft | 501 kts | 319° |
| 2026-05-04 21:42 | -2.30101 | 111.31495 | 37877 ft | 501 kts | 319° |
| 2026-05-04 21:42 | -2.24904 | 111.26855 | 37881 ft | 501 kts | 319° |
| 2026-05-04 21:43 | -2.19700 | 111.22210 | 37864 ft | 501 kts | 319° |
| 2026-05-04 21:43 | -2.14536 | 111.17601 | 37881 ft | 501 kts | 319° |
| 2026-05-04 21:44 | -2.09336 | 111.12960 | 37878 ft | 501 kts | 319° |
| 2026-05-04 21:44 | -2.04101 | 111.08291 | 37878 ft | 501 kts | 319° |
| 2026-05-04 21:45 | -1.98943 | 111.03672 | 37882 ft | 501 kts | 319° |
| 2026-05-04 21:45 | -1.93755 | 110.99016 | 37880 ft | 501 kts | 319° |
| 2026-05-04 21:46 | -1.88567 | 110.94365 | 37879 ft | 501 kts | 319° |
| 2026-05-04 21:46 | -1.83378 | 110.89716 | 37883 ft | 501 kts | 319° |
| 2026-05-04 21:47 | -1.78189 | 110.85068 | 37880 ft | 501 kts | 319° |
| 2026-05-04 21:47 | -1.72994 | 110.80415 | 37882 ft | 501 kts | 319° |
| 2026-05-04 21:48 | -1.67800 | 110.75764 | 37884 ft | 501 kts | 319° |
| 2026-05-04 21:48 | -1.62597 | 110.71105 | 37956 ft | 503 kts | 319° |
| 2026-05-04 21:48 | -1.59994 | 110.68775 | 38218 ft | 502 kts | 319° |
| 2026-05-04 21:49 | -1.57401 | 110.66453 | 38506 ft | 500 kts | 319° |
| 2026-05-04 21:49 | -1.54808 | 110.64131 | 38725 ft | 499 kts | 319° |
| 2026-05-04 21:49 | -1.52226 | 110.61819 | 38948 ft | 499 kts | 319° |
| 2026-05-04 21:49 | -1.49643 | 110.59506 | 39147 ft | 498 kts | 319° |
| 2026-05-04 21:50 | -1.47063 | 110.57196 | 39345 ft | 497 kts | 319° |
| 2026-05-04 21:50 | -1.44491 | 110.54894 | 39544 ft | 496 kts | 319° |
| 2026-05-04 21:50 | -1.41923 | 110.52595 | 39741 ft | 495 kts | 319° |
| 2026-05-04 21:50 | -1.39358 | 110.50298 | 39862 ft | 495 kts | 319° |
| 2026-05-04 21:51 | -1.36792 | 110.48002 | 39877 ft | 494 kts | 319° |
| 2026-05-04 21:51 | -1.31708 | 110.43451 | 39877 ft | 493 kts | 319° |
| 2026-05-04 21:52 | -1.26582 | 110.38891 | 39879 ft | 493 kts | 320° |
| 2026-05-04 21:52 | -1.21371 | 110.34440 | 39879 ft | 493 kts | 321° |
| 2026-05-04 21:53 | -1.16137 | 110.30010 | 39875 ft | 493 kts | 321° |
| 2026-05-04 21:53 | -1.10916 | 110.25566 | 39874 ft | 493 kts | 320° |
| 2026-05-04 21:54 | -1.05705 | 110.21112 | 39881 ft | 493 kts | 320° |
| 2026-05-04 21:54 | -1.00500 | 110.16659 | 39876 ft | 492 kts | 320° |
| 2026-05-04 21:55 | -0.95299 | 110.12210 | 39878 ft | 492 kts | 320° |
| 2026-05-04 21:55 | -0.90101 | 110.07766 | 39878 ft | 491 kts | 320° |
| 2026-05-04 21:56 | -0.84906 | 110.03323 | 39873 ft | 491 kts | 320° |
| 2026-05-04 21:56 | -0.79714 | 109.98884 | 39873 ft | 491 kts | 320° |
| 2026-05-04 21:57 | -0.74523 | 109.94445 | 39874 ft | 491 kts | 320° |
| 2026-05-04 21:57 | -0.69357 | 109.90029 | 39873 ft | 491 kts | 320° |
| 2026-05-04 21:58 | -0.64165 | 109.85590 | 39872 ft | 491 kts | 320° |
| 2026-05-04 21:58 | -0.58972 | 109.81150 | 39873 ft | 491 kts | 320° |
| 2026-05-04 21:59 | -0.53777 | 109.76709 | 39873 ft | 492 kts | 320° |
| 2026-05-04 21:59 | -0.48574 | 109.72261 | 39873 ft | 492 kts | 320° |
| 2026-05-04 22:00 | -0.43372 | 109.67813 | 39874 ft | 492 kts | 320° |
| 2026-05-04 22:00 | -0.38170 | 109.63366 | 39875 ft | 492 kts | 320° |
| 2026-05-04 22:01 | -0.32956 | 109.58910 | 39879 ft | 493 kts | 320° |
| 2026-05-04 22:01 | -0.27733 | 109.54445 | 39880 ft | 495 kts | 320° |
| 2026-05-04 22:02 | -0.22537 | 109.50004 | 39882 ft | 495 kts | 320° |
| 2026-05-04 22:02 | -0.17302 | 109.45528 | 39884 ft | 495 kts | 320° |
| 2026-05-04 22:03 | -0.12070 | 109.41056 | 39882 ft | 495 kts | 320° |
| 2026-05-04 22:03 | -0.06828 | 109.36573 | 39884 ft | 495 kts | 320° |
| 2026-05-04 22:04 | -0.01739 | 109.31934 | 39882 ft | 495 kts | 317° |
| 2026-05-04 22:04 | 0.03270 | 109.27206 | 39870 ft | 495 kts | 317° |
| 2026-05-04 22:05 | 0.08298 | 109.22493 | 39869 ft | 495 kts | 317° |
| 2026-05-04 22:05 | 0.13315 | 109.17834 | 39870 ft | 495 kts | 318° |
| 2026-05-04 22:06 | 0.18373 | 109.13151 | 39870 ft | 495 kts | 318° |
| 2026-05-04 22:06 | 0.23431 | 109.08470 | 39867 ft | 495 kts | 318° |
| 2026-05-04 22:07 | 0.28481 | 109.03794 | 39869 ft | 495 kts | 318° |
| 2026-05-04 22:07 | 0.33530 | 108.99117 | 39869 ft | 495 kts | 318° |
| 2026-05-04 22:08 | 0.38582 | 108.94438 | 39866 ft | 495 kts | 318° |
| 2026-05-04 22:08 | 0.43634 | 108.89758 | 39864 ft | 495 kts | 318° |
| 2026-05-04 22:09 | 0.48684 | 108.85080 | 39868 ft | 495 kts | 318° |
| 2026-05-04 22:09 | 0.53699 | 108.80437 | 39864 ft | 495 kts | 318° |
| 2026-05-04 22:10 | 0.58781 | 108.75732 | 39869 ft | 495 kts | 317° |
| 2026-05-04 22:10 | 0.63833 | 108.71043 | 39868 ft | 496 kts | 317° |
| 2026-05-04 22:11 | 0.68855 | 108.66384 | 39865 ft | 496 kts | 317° |
| 2026-05-04 22:11 | 0.73912 | 108.61695 | 39864 ft | 496 kts | 317° |
| 2026-05-04 22:12 | 0.78977 | 108.56999 | 39865 ft | 497 kts | 317° |
| 2026-05-04 22:12 | 0.84048 | 108.52297 | 39865 ft | 497 kts | 317° |
| 2026-05-04 22:13 | 0.89121 | 108.47594 | 39862 ft | 497 kts | 317° |
| 2026-05-04 22:13 | 0.94191 | 108.42893 | 39868 ft | 497 kts | 317° |
| 2026-05-04 22:14 | 0.99254 | 108.38198 | 39864 ft | 496 kts | 318° |
| 2026-05-04 22:14 | 1.03457 | 108.34300 | 39865 ft | 495 kts | 318° |
| 2026-05-04 22:15 | 1.08514 | 108.29611 | 39864 ft | 495 kts | 318° |
| 2026-05-04 22:15 | 1.13572 | 108.24920 | 39865 ft | 497 kts | 318° |
| 2026-05-04 22:16 | 1.18636 | 108.20223 | 39865 ft | 497 kts | 318° |
| 2026-05-04 22:16 | 1.23709 | 108.15518 | 39865 ft | 497 kts | 318° |
| 2026-05-04 22:17 | 1.28777 | 108.10817 | 39865 ft | 497 kts | 318° |
| 2026-05-04 22:17 | 1.33851 | 108.06111 | 39860 ft | 497 kts | 318° |
| 2026-05-04 22:18 | 1.38923 | 108.01406 | 39864 ft | 497 kts | 318° |
| 2026-05-04 22:18 | 1.43959 | 107.96735 | 39865 ft | 497 kts | 317° |
| 2026-05-04 22:19 | 1.49015 | 107.92007 | 39864 ft | 497 kts | 317° |
| 2026-05-04 22:19 | 1.54061 | 107.87275 | 39864 ft | 497 kts | 317° |
| 2026-05-04 22:20 | 1.59110 | 107.82548 | 39864 ft | 497 kts | 317° |
| 2026-05-04 22:20 | 1.64164 | 107.77820 | 39865 ft | 497 kts | 317° |
| 2026-05-04 22:21 | 1.69220 | 107.73092 | 39865 ft | 498 kts | 318° |
| 2026-05-04 22:21 | 1.74281 | 107.68358 | 39864 ft | 498 kts | 318° |
| 2026-05-04 22:22 | 1.79345 | 107.63622 | 39859 ft | 499 kts | 318° |
| 2026-05-04 22:22 | 1.84411 | 107.58883 | 39862 ft | 499 kts | 318° |
| 2026-05-04 22:23 | 1.89449 | 107.54169 | 39863 ft | 499 kts | 318° |
| 2026-05-04 22:23 | 1.94523 | 107.49422 | 39862 ft | 499 kts | 318° |
| 2026-05-04 22:24 | 1.99592 | 107.44680 | 39865 ft | 499 kts | 318° |
| 2026-05-04 22:24 | 2.04669 | 107.39945 | 39864 ft | 499 kts | 318° |
| 2026-05-04 22:25 | 2.09747 | 107.35211 | 39865 ft | 498 kts | 318° |
| 2026-05-04 22:25 | 2.14814 | 107.30487 | 39864 ft | 498 kts | 318° |
| 2026-05-04 22:26 | 2.19890 | 107.25755 | 39864 ft | 498 kts | 318° |
| 2026-05-04 22:26 | 2.24960 | 107.21027 | 39865 ft | 498 kts | 318° |
| 2026-05-04 22:27 | 2.30028 | 107.16301 | 39865 ft | 498 kts | 318° |
| 2026-05-04 22:27 | 2.35095 | 107.11576 | 39865 ft | 498 kts | 319° |
| 2026-05-04 22:28 | 2.39849 | 107.06521 | 39864 ft | 499 kts | 313° |
| 2026-05-04 22:28 | 2.44412 | 107.01351 | 39865 ft | 499 kts | 313° |
| 2026-05-04 22:29 | 2.48973 | 106.96129 | 39862 ft | 498 kts | 313° |
| 2026-05-04 22:29 | 2.53534 | 106.90912 | 39862 ft | 498 kts | 313° |
| 2026-05-04 22:30 | 2.58102 | 106.85697 | 39863 ft | 498 kts | 313° |
| 2026-05-04 22:30 | 2.62674 | 106.80481 | 39864 ft | 499 kts | 313° |
| 2026-05-04 22:31 | 2.67251 | 106.75259 | 39867 ft | 499 kts | 313° |
| 2026-05-04 22:31 | 2.71825 | 106.70039 | 39865 ft | 499 kts | 313° |
| 2026-05-04 22:32 | 2.76396 | 106.64822 | 39865 ft | 498 kts | 312° |
| 2026-05-04 22:32 | 2.80962 | 106.59611 | 39865 ft | 498 kts | 312° |
| 2026-05-04 22:33 | 2.85528 | 106.54401 | 39865 ft | 498 kts | 313° |
| 2026-05-04 22:33 | 2.90096 | 106.49194 | 39865 ft | 498 kts | 312° |
| 2026-05-04 22:34 | 2.94635 | 106.44019 | 39863 ft | 498 kts | 313° |
| 2026-05-04 22:34 | 2.99205 | 106.38813 | 39864 ft | 498 kts | 312° |
| 2026-05-04 22:35 | 3.03772 | 106.33610 | 39867 ft | 498 kts | 312° |
| 2026-05-04 22:35 | 3.08340 | 106.28407 | 39865 ft | 497 kts | 312° |
| 2026-05-04 22:36 | 3.12907 | 106.23204 | 39865 ft | 497 kts | 312° |
| 2026-05-04 22:36 | 3.17469 | 106.18008 | 39867 ft | 497 kts | 312° |
| 2026-05-04 22:37 | 3.22034 | 106.12808 | 39868 ft | 497 kts | 312° |
| 2026-05-04 22:37 | 3.26604 | 106.07610 | 39863 ft | 497 kts | 313° |
| 2026-05-04 22:38 | 3.31175 | 106.02411 | 39867 ft | 497 kts | 312° |
| 2026-05-04 22:38 | 3.35743 | 105.97209 | 39868 ft | 498 kts | 312° |
| 2026-05-04 22:39 | 3.40318 | 105.92001 | 39864 ft | 498 kts | 312° |
| 2026-05-04 22:39 | 3.44899 | 105.86788 | 39865 ft | 499 kts | 312° |
| 2026-05-04 22:40 | 3.49481 | 105.81572 | 39864 ft | 499 kts | 312° |
| 2026-05-04 22:40 | 3.54056 | 105.76357 | 39865 ft | 499 kts | 312° |
| 2026-05-04 22:41 | 3.58624 | 105.71131 | 39864 ft | 499 kts | 312° |
| 2026-05-04 22:41 | 3.63193 | 105.65911 | 39863 ft | 499 kts | 312° |
| 2026-05-04 22:42 | 3.67739 | 105.60722 | 39855 ft | 499 kts | 312° |
| 2026-05-04 22:42 | 3.72314 | 105.55503 | 39865 ft | 499 kts | 312° |
| 2026-05-04 22:43 | 3.76892 | 105.50285 | 39868 ft | 499 kts | 313° |
| 2026-05-04 22:43 | 3.81485 | 105.45071 | 39867 ft | 499 kts | 313° |
| 2026-05-04 22:44 | 3.86084 | 105.39854 | 39868 ft | 499 kts | 313° |
| 2026-05-04 22:44 | 3.90678 | 105.34637 | 39866 ft | 499 kts | 313° |
| 2026-05-04 22:45 | 3.95269 | 105.29421 | 39865 ft | 499 kts | 313° |
| 2026-05-04 22:45 | 4.02159 | 105.21587 | 39868 ft | 500 kts | 312° |
| 2026-05-04 22:46 | 4.06740 | 105.16349 | 39867 ft | 500 kts | 312° |
| 2026-05-04 22:46 | 4.11320 | 105.11111 | 39866 ft | 500 kts | 312° |
| 2026-05-04 22:47 | 4.15904 | 105.05873 | 39869 ft | 500 kts | 312° |
| 2026-05-04 22:47 | 4.20456 | 105.00674 | 39868 ft | 500 kts | 312° |
| 2026-05-04 22:48 | 4.25049 | 104.95444 | 39867 ft | 500 kts | 313° |
| 2026-05-04 22:48 | 4.29641 | 104.90214 | 39865 ft | 500 kts | 313° |
| 2026-05-04 22:49 | 4.34232 | 104.84985 | 39867 ft | 499 kts | 313° |
| 2026-05-04 22:49 | 4.38828 | 104.79750 | 39866 ft | 499 kts | 313° |
| 2026-05-04 22:50 | 4.43421 | 104.74524 | 39869 ft | 499 kts | 312° |
| 2026-05-04 22:50 | 4.48010 | 104.69302 | 39872 ft | 499 kts | 312° |
| 2026-05-04 22:51 | 4.52602 | 104.64076 | 39867 ft | 499 kts | 312° |
| 2026-05-04 22:51 | 4.57194 | 104.58848 | 39866 ft | 499 kts | 312° |
| 2026-05-04 22:52 | 4.61786 | 104.53620 | 39865 ft | 499 kts | 312° |
| 2026-05-04 22:52 | 4.66377 | 104.48392 | 39870 ft | 499 kts | 312° |
| 2026-05-04 22:53 | 4.70938 | 104.43197 | 39869 ft | 499 kts | 312° |
| 2026-05-04 22:53 | 4.75557 | 104.37934 | 39870 ft | 499 kts | 312° |
| 2026-05-04 22:54 | 4.80116 | 104.32738 | 39869 ft | 500 kts | 312° |
| 2026-05-04 22:54 | 4.84708 | 104.27504 | 39869 ft | 499 kts | 312° |
| 2026-05-04 22:55 | 4.89805 | 104.22827 | 39872 ft | 498 kts | 324° |
| 2026-05-04 22:55 | 4.95438 | 104.18737 | 39869 ft | 501 kts | 326° |
| 2026-05-04 22:56 | 5.01167 | 104.14737 | 39869 ft | 500 kts | 326° |
| 2026-05-04 22:56 | 5.06855 | 104.10767 | 39870 ft | 496 kts | 326° |
| 2026-05-04 22:57 | 5.12511 | 104.06798 | 39870 ft | 496 kts | 326° |
| 2026-05-04 22:57 | 5.18162 | 104.02822 | 39868 ft | 496 kts | 326° |
| 2026-05-04 22:58 | 5.23807 | 103.98846 | 39869 ft | 495 kts | 326° |
| 2026-05-04 22:58 | 5.29456 | 103.94868 | 39869 ft | 495 kts | 326° |
| 2026-05-04 22:59 | 5.35094 | 103.90896 | 39869 ft | 495 kts | 326° |
| 2026-05-04 22:59 | 5.40735 | 103.86922 | 39869 ft | 495 kts | 326° |
| 2026-05-04 23:00 | 5.46379 | 103.82945 | 39871 ft | 496 kts | 326° |
| 2026-05-04 23:00 | 5.51069 | 103.79639 | 39869 ft | 496 kts | 326° |
| 2026-05-04 23:01 | 5.56719 | 103.75657 | 39869 ft | 496 kts | 326° |
| 2026-05-04 23:01 | 5.63314 | 103.71006 | 39868 ft | 495 kts | 326° |
| 2026-05-04 23:02 | 5.68000 | 103.67700 | 39869 ft | 495 kts | 326° |
| 2026-05-04 23:02 | 5.73637 | 103.63724 | 39868 ft | 495 kts | 326° |
| 2026-05-04 23:03 | 5.79271 | 103.59748 | 39871 ft | 495 kts | 325° |
| 2026-05-04 23:03 | 5.84909 | 103.55769 | 39869 ft | 495 kts | 325° |
| 2026-05-04 23:04 | 5.90517 | 103.51809 | 39867 ft | 495 kts | 326° |
| 2026-05-04 23:04 | 5.96152 | 103.47830 | 39880 ft | 494 kts | 326° |
| 2026-05-04 23:05 | 6.01757 | 103.43870 | 39866 ft | 491 kts | 326° |
| 2026-05-04 23:05 | 6.07345 | 103.39922 | 39865 ft | 491 kts | 326° |
| 2026-05-04 23:06 | 6.12932 | 103.35974 | 39867 ft | 491 kts | 326° |
| 2026-05-04 23:06 | 6.18521 | 103.32029 | 39869 ft | 491 kts | 326° |
| 2026-05-04 23:07 | 6.24114 | 103.28085 | 39881 ft | 491 kts | 326° |
| 2026-05-04 23:07 | 6.29709 | 103.24139 | 39873 ft | 491 kts | 326° |
| 2026-05-04 23:08 | 6.35299 | 103.20195 | 39882 ft | 491 kts | 326° |
| 2026-05-04 23:08 | 6.40884 | 103.16253 | 39883 ft | 491 kts | 326° |
| 2026-05-04 23:09 | 6.46440 | 103.12332 | 39877 ft | 491 kts | 326° |
| 2026-05-04 23:09 | 6.52023 | 103.08390 | 39877 ft | 490 kts | 326° |
| 2026-05-04 23:10 | 6.57598 | 103.04452 | 39880 ft | 489 kts | 326° |
| 2026-05-04 23:10 | 6.63169 | 103.00523 | 39877 ft | 489 kts | 326° |
| 2026-05-04 23:11 | 6.68742 | 102.96590 | 39862 ft | 489 kts | 326° |
| 2026-05-04 23:11 | 6.74295 | 102.92667 | 39863 ft | 487 kts | 326° |
| 2026-05-04 23:12 | 6.79841 | 102.88750 | 39858 ft | 487 kts | 326° |
| 2026-05-04 23:12 | 6.85416 | 102.84856 | 39875 ft | 487 kts | 329° |
| 2026-05-04 23:13 | 6.91508 | 102.81956 | 39865 ft | 484 kts | 340° |
| 2026-05-04 23:13 | 6.97851 | 102.79660 | 39876 ft | 484 kts | 342° |
| 2026-05-04 23:14 | 7.04232 | 102.77466 | 39877 ft | 485 kts | 342° |
| 2026-05-04 23:14 | 7.10614 | 102.75267 | 39876 ft | 484 kts | 341° |
| 2026-05-04 23:15 | 7.16946 | 102.73066 | 39873 ft | 485 kts | 341° |
| 2026-05-04 23:15 | 7.23317 | 102.70842 | 39863 ft | 484 kts | 341° |
| 2026-05-04 23:16 | 7.29689 | 102.68615 | 39862 ft | 485 kts | 341° |
| 2026-05-04 23:16 | 7.36063 | 102.66388 | 39875 ft | 485 kts | 341° |
| 2026-05-04 23:17 | 7.42435 | 102.64161 | 39870 ft | 485 kts | 341° |
| 2026-05-04 23:17 | 7.48792 | 102.61939 | 39875 ft | 482 kts | 341° |
| 2026-05-04 23:18 | 7.55104 | 102.59733 | 39879 ft | 480 kts | 341° |
| 2026-05-04 23:18 | 7.61423 | 102.57523 | 39865 ft | 481 kts | 341° |
| 2026-05-04 23:19 | 7.67740 | 102.55313 | 39865 ft | 480 kts | 341° |
| 2026-05-04 23:19 | 7.74052 | 102.53104 | 39878 ft | 481 kts | 341° |
| 2026-05-04 23:20 | 7.80374 | 102.50891 | 39873 ft | 480 kts | 341° |
| 2026-05-04 23:20 | 7.86690 | 102.48679 | 39875 ft | 481 kts | 341° |
| 2026-05-04 23:21 | 7.93011 | 102.46465 | 39875 ft | 481 kts | 341° |
| 2026-05-04 23:21 | 7.99321 | 102.44254 | 39876 ft | 480 kts | 341° |
| 2026-05-04 23:22 | 8.05636 | 102.42041 | 39877 ft | 481 kts | 341° |
| 2026-05-04 23:22 | 8.11949 | 102.39827 | 39877 ft | 479 kts | 341° |
| 2026-05-04 23:23 | 8.18255 | 102.37615 | 39877 ft | 481 kts | 342° |
| 2026-05-04 23:23 | 8.24566 | 102.35400 | 39874 ft | 480 kts | 342° |
| 2026-05-04 23:24 | 8.30870 | 102.33188 | 39864 ft | 480 kts | 341° |
| 2026-05-04 23:24 | 8.37183 | 102.30971 | 39873 ft | 480 kts | 342° |
| 2026-05-04 23:25 | 8.43481 | 102.28759 | 39875 ft | 479 kts | 342° |
| 2026-05-04 23:25 | 8.49743 | 102.26559 | 39875 ft | 480 kts | 342° |
| 2026-05-04 23:26 | 8.56044 | 102.24345 | 39862 ft | 479 kts | 342° |
| 2026-05-04 23:26 | 8.62343 | 102.22130 | 39876 ft | 480 kts | 342° |
| 2026-05-04 23:27 | 8.68645 | 102.19913 | 39879 ft | 480 kts | 342° |
| 2026-05-04 23:27 | 8.74945 | 102.17697 | 39877 ft | 479 kts | 342° |
| 2026-05-04 23:28 | 8.81247 | 102.15479 | 39877 ft | 480 kts | 342° |
| 2026-05-04 23:28 | 8.87550 | 102.13259 | 39876 ft | 479 kts | 342° |
| 2026-05-04 23:29 | 8.93850 | 102.11040 | 39879 ft | 480 kts | 342° |
| 2026-05-04 23:29 | 9.00165 | 102.08815 | 39879 ft | 480 kts | 342° |
| 2026-05-04 23:30 | 9.06471 | 102.06593 | 39879 ft | 480 kts | 342° |
| 2026-05-04 23:30 | 9.12787 | 102.04366 | 39879 ft | 481 kts | 342° |
| 2026-05-04 23:31 | 9.19103 | 102.02138 | 39874 ft | 480 kts | 341° |
| 2026-05-04 23:31 | 9.25418 | 101.99910 | 39876 ft | 481 kts | 341° |
| 2026-05-04 23:32 | 9.31900 | 101.98369 | 39873 ft | 477 kts | 353° |
| 2026-05-04 23:32 | 9.38498 | 101.97671 | 39873 ft | 477 kts | 355° |
| 2026-05-04 23:33 | 9.45114 | 101.97111 | 39878 ft | 476 kts | 355° |
| 2026-05-04 23:33 | 9.51726 | 101.96560 | 39875 ft | 477 kts | 355° |
| 2026-05-04 23:34 | 9.58339 | 101.95993 | 39876 ft | 477 kts | 355° |
| 2026-05-04 23:34 | 9.64956 | 101.95416 | 39882 ft | 477 kts | 355° |
| 2026-05-04 23:35 | 9.71521 | 101.94841 | 39879 ft | 477 kts | 355° |
| 2026-05-04 23:35 | 9.78130 | 101.94263 | 39877 ft | 476 kts | 355° |
| 2026-05-04 23:36 | 9.84738 | 101.93685 | 39878 ft | 477 kts | 355° |
| 2026-05-04 23:36 | 9.91345 | 101.93107 | 39881 ft | 476 kts | 355° |
| 2026-05-04 23:37 | 9.97951 | 101.92529 | 39888 ft | 477 kts | 355° |
| 2026-05-04 23:37 | 10.04559 | 101.91950 | 39888 ft | 477 kts | 354° |
| 2026-05-04 23:38 | 10.11172 | 101.91371 | 39883 ft | 477 kts | 354° |
| 2026-05-04 23:38 | 10.17787 | 101.90791 | 39882 ft | 477 kts | 354° |
| 2026-05-04 23:39 | 10.24403 | 101.90211 | 39883 ft | 477 kts | 354° |
| 2026-05-04 23:39 | 10.31016 | 101.89632 | 39886 ft | 477 kts | 354° |
| 2026-05-04 23:40 | 10.37632 | 101.89051 | 39883 ft | 477 kts | 354° |
| 2026-05-04 23:40 | 10.44258 | 101.88469 | 39886 ft | 478 kts | 354° |
| 2026-05-04 23:41 | 10.50890 | 101.87887 | 39886 ft | 478 kts | 354° |
| 2026-05-04 23:41 | 10.57526 | 101.87304 | 39886 ft | 478 kts | 354° |